Latitude: N 50° 09' 49" Longitude: W 05° 11' 53" Elevation: 168m ASL

There are 17 visitors online

Adverts

<- Previous Day | Today | Next Day ->

All Data for 12 January 2019

Time
A - D
Temp
A - D
Dew Point
A - D
Humidity
A - D
Pressure
A - D
Wind
A - D
Wind Dir Gust
A - D
Rain Rate
A - D
Rain Total
00:00 7.7 6.8 94 1032.8 3.8 SW 3.8 0.0 0.0
00:01 7.6 6.7 94 1032.8 3.1 SW 3.8 0.0 0.0
00:02 7.5 6.6 94 1032.8 3.8 SW 3.8 0.0 0.0
00:03 7.6 6.7 94 1032.7 3.8 S 3.8 0.0 0.0
00:04 7.6 6.7 94 1032.7 3.8 SW 3.8 0.0 0.0
00:05 7.6 6.7 94 1032.7 2.2 SW 3.8 0.0 0.0
00:06 7.6 6.7 94 1032.6 3.8 SW 3.8 0.0 0.0
00:07 7.5 6.6 94 1032.8 3.8 SW 3.8 0.0 0.0
00:08 7.5 6.6 94 1032.7 3.1 S 3.8 0.0 0.0
00:09 7.5 6.6 94 1032.6 3.1 SSW 3.8 0.0 0.0
00:10 7.5 6.6 94 1032.6 3.1 SW 3.8 0.0 0.0
00:11 7.5 6.6 94 1032.6 3.1 SW 3.8 0.0 0.0
00:12 7.5 6.6 94 1032.7 2.2 SW 3.8 0.0 0.0
00:13 7.5 6.6 94 1032.6 2.2 SW 3.8 0.0 0.0
00:14 7.5 6.6 94 1032.7 1.6 SW 3.8 0.0 0.0
00:15 7.5 6.6 94 1032.5 2.2 SW 3.8 0.0 0.0
00:17 7.5 6.6 94 1032.5 3.1 S 3.1 0.0 0.0
00:18 7.5 6.6 94 1032.6 2.2 S 3.1 0.0 0.0
00:19 7.5 6.6 94 1032.6 2.2 S 3.1 0.0 0.0
00:20 7.5 6.6 94 1032.8 2.2 SSW 3.1 0.0 0.0
00:21 7.5 6.6 94 1032.8 2.2 SSW 3.1 0.0 0.0
00:22 7.5 6.6 94 1032.7 2.2 S 3.8 0.0 0.0
00:23 7.5 6.6 94 1032.7 3.1 SW 3.8 0.0 0.0
00:24 7.5 6.6 94 1032.6 3.8 SW 3.8 0.0 0.0
00:25 7.5 6.6 94 1032.5 3.8 SW 3.8 0.0 0.0
00:26 7.5 6.6 94 1032.6 3.1 SW 3.8 0.0 0.0
00:27 7.5 6.6 94 1032.6 3.1 SW 3.8 0.0 0.0
00:28 7.5 6.6 94 1032.6 3.1 SW 3.8 0.0 0.0
00:29 7.5 6.6 94 1032.3 4.5 S 4.5 0.0 0.0
00:30 7.5 6.8 95 1032.6 4.5 SW 4.5 0.0 0.0
00:31 7.5 6.8 95 1032.7 3.8 SW 4.5 0.0 0.0
00:32 7.5 6.8 95 1032.7 4.5 SW 4.5 0.0 0.0
00:33 7.5 6.8 95 1032.5 3.8 SW 4.5 0.0 0.0
00:34 7.5 6.8 95 1032.6 3.8 S 4.5 0.0 0.0
00:36 7.5 6.8 95 1032.6 2.2 SW 4.5 0.0 0.0
00:37 7.3 6.6 95 1032.6 3.1 S 4.5 0.0 0.0
00:38 7.3 6.6 95 1032.5 3.8 S 4.5 0.0 0.0
00:39 7.5 6.8 95 1032.5 4.5 S 4.5 0.0 0.0
00:40 7.5 6.8 95 1032.6 3.1 S 4.5 0.0 0.0
00:41 7.5 6.8 95 1032.4 3.1 S 4.5 0.0 0.0
00:42 7.4 6.7 95 1032.4 3.1 S 4.5 0.0 0.0
00:43 7.5 6.8 95 1032.4 4.5 SW 4.5 0.0 0.0
00:44 7.3 6.6 95 1032.3 3.8 SSW 4.5 0.0 0.0
00:45 7.4 6.7 95 1032.4 3.1 S 4.5 0.0 0.0
00:46 7.5 6.8 95 1032.4 4.5 SW 4.5 0.0 0.0
00:47 7.5 6.8 95 1032.3 6.0 SW 6.0 0.0 0.0
00:48 7.4 6.7 95 1032.3 3.8 SW 6.0 0.0 0.0
00:49 7.4 6.7 95 1032.3 3.8 W 6.0 0.0 0.0
00:50 7.4 6.7 95 1032.2 3.1 S 6.0 0.0 0.0
00:51 7.5 6.8 95 1032.3 3.1 SW 6.0 0.0 0.0
00:52 7.4 6.7 95 1032.3 3.8 SW 6.0 0.0 0.0
00:53 7.4 6.7 95 1032.3 3.1 S 6.0 0.0 0.0
00:55 7.4 6.7 95 1032.1 3.1 SW 6.0 0.0 0.0
00:56 7.4 6.7 95 1032.2 3.1 S 6.0 0.0 0.0
00:57 7.4 6.7 95 1032.2 3.1 S 4.5 0.0 0.0
00:58 7.4 6.7 95 1032.2 3.1 SW 4.5 0.0 0.0
00:59 7.4 6.7 95 1032.1 3.1 SW 4.5 0.0 0.0
01:00 7.2 6.5 95 1032.1 3.1 SW 3.8 0.0 0.0
01:01 7.2 6.5 95 1032.2 3.1 SW 3.8 0.0 0.0
01:02 7.2 6.5 95 1032.1 3.1 SW 3.8 0.0 0.0
01:03 7.2 6.5 95 1032.1 3.1 SW 3.1 0.0 0.0
01:04 7.2 6.5 95 1031.9 3.1 SW 3.1 0.0 0.0
01:05 7.3 6.6 95 1032.0 3.8 SSW 3.8 0.0 0.0
01:06 7.3 6.6 95 1031.9 4.5 SW 4.5 0.0 0.0
01:07 7.3 6.6 95 1032.2 4.5 SW 4.5 0.0 0.0
01:08 7.2 6.5 95 1032.0 3.8 NW 4.5 0.0 0.0
01:09 7.2 6.5 95 1032.1 3.8 SW 4.5 0.0 0.0
01:10 7.2 6.5 95 1032.1 3.8 SW 4.5 0.0 0.0
01:11 7.1 6.4 95 1032.0 3.1 SW 4.5 0.0 0.0
01:12 7.2 6.5 95 1032.0 3.8 SW 4.5 0.0 0.0
01:13 7.1 6.4 95 1032.0 3.1 S 4.5 0.0 0.0
01:14 7.1 6.4 95 1032.0 5.4 SW 5.4 0.0 0.0
01:15 7.1 6.4 95 1032.0 5.4 SW 5.4 0.0 0.0
01:16 7.1 6.5 96 1031.8 4.5 SW 5.4 0.0 0.0
01:17 7.0 6.4 96 1031.9 4.5 SW 5.4 0.0 0.0
01:18 7.0 6.4 96 1032.0 6.0 W 6.0 0.0 0.0
01:19 7.0 6.4 96 1032.0 5.4 SW 6.0 0.0 0.0
01:20 7.0 6.4 96 1032.0 4.5 SW 6.0 0.0 0.0
01:22 6.9 6.3 96 1031.9 3.8 WNW 6.0 0.0 0.0
01:23 6.9 6.3 96 1032.1 6.0 W 6.0 0.0 0.0
01:24 6.9 6.3 96 1031.9 8.3 SW 8.3 0.0 0.0
01:25 6.9 6.3 96 1031.9 8.3 SW 8.3 0.0 0.0
01:26 6.9 6.3 96 1032.1 6.0 SW 8.3 0.0 0.0
01:27 7.0 6.4 96 1031.9 6.0 SW 8.3 0.0 0.0
01:28 7.0 6.4 96 1031.9 4.5 W 8.3 0.0 0.0
01:29 6.9 6.3 96 1032.0 4.5 SW 8.3 0.0 0.0
01:30 7.0 6.4 96 1032.1 5.4 W 8.3 0.0 0.0
01:31 7.0 6.4 96 1032.2 4.5 SW 8.3 0.0 0.0
01:32 7.0 6.4 96 1032.0 3.8 SW 8.3 0.0 0.0
01:33 7.0 6.4 96 1032.2 4.5 SW 8.3 0.0 0.0
01:34 7.0 6.4 96 1031.9 5.4 SW 8.3 0.0 0.0
01:35 7.0 6.4 96 1032.1 4.5 W 6.0 0.0 0.0
01:36 7.0 6.4 96 1032.0 3.8 SW 6.0 0.0 0.0
01:37 7.0 6.4 96 1032.2 5.4 SW 5.4 0.0 0.0
01:38 6.9 6.3 96 1032.1 4.5 SW 5.4 0.0 0.0
01:39 7.1 6.5 96 1032.2 5.4 W 5.4 0.0 0.0
01:41 7.1 6.5 96 1032.1 5.4 W 6.0 0.0 0.0
01:42 7.1 6.5 96 1032.2 4.5 W 6.0 0.0 0.0
01:43 7.2 6.6 96 1032.1 5.4 SW 6.0 0.0 0.0
01:44 7.2 6.6 96 1032.1 5.4 SW 6.0 0.0 0.0
01:45 7.2 6.6 96 1032.1 5.4 SW 6.0 0.0 0.0
01:46 7.3 6.7 96 1032.0 8.3 NW 8.3 0.0 0.0
01:47 7.3 6.7 96 1031.9 6.9 W 8.3 0.0 0.0
01:48 7.3 6.7 96 1031.9 6.9 W 8.3 0.0 0.0
01:49 7.3 6.7 96 1032.0 9.8 SW 9.8 0.0 0.0
01:50 7.4 7.0 97 1031.9 6.9 SW 9.8 0.0 0.0
01:51 7.4 6.8 96 1032.0 6.9 WSW 9.8 0.0 0.0
01:52 7.4 7.0 97 1032.1 6.9 NW 9.8 0.0 0.0
01:53 7.5 7.1 97 1032.2 6.9 SW 9.8 0.0 0.0
01:54 7.5 7.1 97 1032.1 5.4 SW 9.8 0.0 0.0
01:55 7.6 7.2 97 1032.1 6.9 SW 9.8 0.0 0.0
01:56 7.6 7.2 97 1032.3 6.0 SW 9.8 0.0 0.0
01:57 7.6 7.2 97 1032.2 6.0 WSW 9.8 0.0 0.0
01:58 7.7 7.3 97 1032.2 9.8 SW 9.8 0.0 0.0
02:00 7.7 7.3 97 1032.3 6.0 S 9.8 0.0 0.0
02:01 7.7 7.3 97 1032.1 6.0 S 9.8 0.0 0.0
02:02 7.7 7.3 97 1032.2 6.0 S 9.8 0.0 0.0
02:03 7.7 7.3 97 1032.2 6.0 S 9.8 0.0 0.0
02:04 7.7 7.3 97 1032.1 6.0 S 9.8 0.0 0.0
02:05 7.7 7.3 97 1032.2 6.0 S 9.8 0.0 0.0
02:06 7.9 7.5 97 1032.0 11.4 WSW 11.4 0.0 0.1
02:07 7.9 7.5 97 1032.1 7.6 W 11.4 0.8 0.1
02:08 8.0 7.6 97 1032.2 8.3 WSW 11.4 0.8 0.1
02:09 8.0 7.6 97 1032.2 9.8 WSW 11.4 0.8 0.1
02:10 8.0 7.6 97 1032.2 9.8 SW 11.4 0.8 0.1
02:11 8.1 7.7 97 1031.9 9.2 S 11.4 0.8 0.1
02:12 8.1 7.7 97 1032.0 8.3 WSW 11.4 0.0 0.1
02:13 8.1 7.7 97 1032.0 13.6 S 13.6 0.0 0.1
02:14 8.1 7.7 97 1032.0 13.6 SW 13.6 0.0 0.1
02:15 8.2 7.8 97 1032.1 9.2 SW 13.6 0.0 0.1
02:16 8.2 7.8 97 1032.2 12.1 SW 13.6 0.0 0.1
02:17 8.2 7.8 97 1032.1 8.3 NW 13.6 0.0 0.1
02:19 8.2 7.8 97 1032.0 10.7 WNW 13.6 0.8 0.1
02:20 8.2 7.8 97 1032.0 13.6 SW 13.6 0.8 0.1
02:21 8.2 7.8 97 1032.1 9.8 NW 13.6 0.8 0.1
02:22 8.2 7.8 97 1032.0 10.7 W 13.6 0.8 0.1
02:23 8.2 7.8 97 1032.0 8.3 NW 13.6 0.8 0.1
02:24 8.2 7.8 97 1032.0 6.0 SW 13.6 0.0 0.1
02:25 8.2 7.8 97 1032.3 8.3 WSW 13.6 0.0 0.1
02:26 8.3 7.9 97 1032.1 11.4 SW 13.6 0.0 0.1
02:27 8.3 8.0 98 1032.2 13.6 SW 13.6 0.0 0.1
02:28 8.3 7.9 97 1031.9 15.2 SW 15.2 0.0 0.1
02:29 8.3 7.9 97 1032.0 13.0 W 15.2 0.0 0.1
02:30 8.3 8.0 98 1032.1 11.4 SW 15.2 0.0 0.1
02:31 8.3 8.0 98 1032.0 14.5 WNW 15.2 0.0 0.1
02:32 8.3 8.0 98 1032.1 7.6 NW 15.2 0.0 0.1
02:33 8.3 8.0 98 1032.0 9.8 SW 15.2 0.0 0.1
02:34 8.3 8.0 98 1032.2 10.7 SW 15.2 0.0 0.1
02:35 8.3 8.0 98 1032.0 10.7 SW 15.2 0.0 0.1
02:36 8.3 8.0 98 1032.0 15.2 W 15.2 0.0 0.1
02:38 8.3 8.0 98 1032.1 13.6 NW 15.2 0.0 0.1
02:39 8.4 8.1 98 1032.0 11.4 W 15.2 0.0 0.1
02:40 8.4 8.1 98 1032.1 11.4 NW 15.2 0.0 0.1
02:41 8.4 8.1 98 1032.1 11.4 NW 15.2 0.0 0.1
02:42 8.4 8.1 98 1032.0 12.1 SW 15.2 0.0 0.1
02:43 8.4 8.1 98 1032.0 10.7 SW 15.2 0.0 0.1
02:44 8.4 8.1 98 1032.0 9.8 W 15.2 0.0 0.1
02:45 8.4 8.1 98 1032.0 14.5 SW 15.2 0.0 0.1
02:46 8.4 8.1 98 1032.1 9.8 W 15.2 0.0 0.1
02:47 8.4 8.1 98 1032.1 9.2 NW 15.2 0.0 0.1
02:48 8.4 8.1 98 1032.1 6.9 SW 15.2 0.0 0.1
02:49 8.4 8.1 98 1032.1 9.8 SW 15.2 0.0 0.1
02:50 8.4 8.1 98 1032.1 12.1 WNW 15.2 0.0 0.1
02:51 8.4 8.1 98 1032.0 6.9 SW 15.2 0.0 0.1
02:52 8.4 8.1 98 1032.1 7.6 SW 14.5 0.0 0.1
02:53 8.4 8.1 98 1032.1 13.6 SW 14.5 0.0 0.1
02:54 8.4 8.1 98 1032.0 9.2 WSW 14.5 0.0 0.1
02:55 8.4 8.1 98 1032.2 8.3 NW 13.6 0.0 0.1
02:57 8.4 8.1 98 1032.0 9.8 SW 13.6 0.0 0.1
02:58 8.4 8.1 98 1032.0 12.1 SW 13.6 0.0 0.1
02:59 8.4 8.1 98 1031.8 9.2 W 13.6 0.0 0.1
03:00 8.4 8.1 98 1031.8 10.7 SW 13.6 0.0 0.1
03:01 8.4 8.1 98 1031.9 10.7 SW 13.6 0.0 0.1
03:02 8.4 8.1 98 1031.9 10.7 SW 13.6 0.0 0.1
03:03 8.4 8.1 98 1031.8 10.7 SW 13.6 0.0 0.1
03:04 8.4 8.1 98 1031.9 9.2 SW 13.6 0.0 0.1
03:05 8.4 8.1 98 1031.8 14.5 SW 14.5 0.8 0.2
03:06 8.4 8.1 98 1031.8 10.7 SW 14.5 0.8 0.2
03:07 8.4 8.1 98 1031.8 11.4 W 14.5 0.8 0.2
03:08 8.4 8.1 98 1031.8 10.7 W 14.5 0.8 0.2
03:09 8.4 8.1 98 1031.9 10.7 WSW 14.5 0.8 0.2
03:10 8.4 8.1 98 1031.6 15.9 W 15.9 0.0 0.2
03:11 8.4 8.1 98 1031.7 13.6 SW 15.9 0.0 0.2
03:12 8.4 8.1 98 1031.8 11.4 SW 15.9 0.0 0.2
03:13 8.4 8.1 98 1031.8 11.4 SW 15.9 0.0 0.2
03:14 8.4 8.1 98 1031.8 13.6 WNW 15.9 0.0 0.2
03:15 8.4 8.1 98 1031.7 8.3 SW 15.9 0.0 0.2
03:17 8.4 8.1 98 1031.7 9.8 NW 15.9 0.0 0.2
03:19 8.3 8.0 98 1031.6 15.9 SW 15.9 0.0 0.2
03:20 8.3 8.0 98 1031.7 13.0 WSW 15.9 0.0 0.2
03:21 8.3 8.0 98 1031.6 11.4 NW 15.9 0.0 0.2
03:22 8.4 8.3 99 1031.8 9.2 W 15.9 0.0 0.2
03:23 8.3 8.0 98 1031.7 11.4 W 15.9 0.0 0.2
03:24 8.4 8.3 99 1031.8 10.7 NW 15.9 0.0 0.2
03:25 8.4 8.3 99 1031.7 11.4 W 15.9 0.0 0.2
03:26 8.4 8.3 99 1031.7 14.5 W 15.9 0.0 0.2
03:27 8.4 8.3 99 1031.7 13.6 NW 15.9 0.0 0.2
03:28 8.4 8.3 99 1031.8 12.1 SW 15.9 0.0 0.2
03:29 8.6 8.5 99 1031.8 9.2 W 15.9 0.0 0.2
03:30 8.4 8.3 99 1031.7 13.6 SW 14.5 0.0 0.2
03:31 8.4 8.3 99 1031.8 13.0 W 14.5 0.0 0.2
03:32 8.4 8.3 99 1031.7 13.6 SW 14.5 0.0 0.2
03:33 8.4 8.3 99 1031.7 15.2 N 15.2 0.0 0.2
03:34 8.4 8.3 99 1031.8 15.9 W 15.9 0.0 0.2
03:35 8.4 8.3 99 1031.8 10.7 WSW 15.9 0.0 0.2
03:36 8.4 8.3 99 1031.7 14.5 NW 15.9 0.0 0.2
03:39 8.4 8.3 99 1031.7 7.6 W 15.9 0.0 0.2
03:40 8.4 8.3 99 1031.6 7.6 W 15.9 0.0 0.2
03:41 8.4 8.3 99 1031.6 7.6 W 15.9 0.0 0.2
03:42 8.4 8.3 99 1031.6 8.3 SW 15.9 0.0 0.2
03:43 8.4 8.3 99 1031.5 7.6 W 15.9 0.0 0.2
03:44 8.4 8.3 99 1031.5 7.6 W 15.9 0.0 0.2
03:45 8.4 8.3 99 1031.5 9.2 NW 14.5 0.0 0.2
03:46 8.4 8.3 99 1031.5 6.0 W 14.5 0.0 0.2
03:47 8.4 8.3 99 1031.4 9.2 N 11.4 0.0 0.2
03:48 8.4 8.3 99 1031.4 8.3 SW 11.4 0.0 0.2
03:49 8.4 8.3 99 1031.5 9.2 W 11.4 0.0 0.2
03:50 8.4 8.3 99 1031.3 8.3 W 11.4 0.0 0.2
03:51 8.4 8.3 99 1031.4 11.4 SW 11.4 0.8 0.3
03:52 8.4 8.3 99 1031.3 9.8 SW 11.4 0.8 0.3
03:53 8.4 8.3 99 1031.3 11.4 SW 11.4 0.8 0.3
03:54 8.4 8.3 99 1031.4 13.6 W 13.6 0.8 0.3
03:55 8.4 8.3 99 1031.3 9.2 W 13.6 0.8 0.3
03:56 8.4 8.3 99 1031.3 7.6 WNW 13.6 0.0 0.3
03:57 8.4 8.3 99 1031.3 8.3 SW 13.6 0.0 0.3
03:58 8.4 8.3 99 1031.0 11.4 W 13.6 0.0 0.3
03:59 8.4 8.3 99 1031.1 10.7 NW 13.6 0.0 0.3
04:01 8.3 8.2 99 1031.2 12.1 SW 13.6 0.0 0.3
04:02 8.4 8.3 99 1031.0 9.8 SW 13.6 0.0 0.3
04:03 8.3 8.2 99 1031.0 14.5 NW 14.5 0.0 0.3
04:04 8.3 8.2 99 1031.1 9.2 SW 14.5 0.0 0.3
04:05 8.3 8.2 99 1031.0 9.2 SW 14.5 0.0 0.3
04:06 8.3 8.2 99 1031.2 9.8 NW 14.5 0.0 0.3
04:07 8.3 8.2 99 1031.1 14.5 SW 14.5 0.0 0.3
04:08 8.3 8.2 99 1031.1 7.6 W 14.5 0.0 0.3
04:09 8.3 8.2 99 1031.0 15.9 NW 15.9 0.0 0.3
04:10 8.3 8.2 99 1031.0 12.1 NW 15.9 0.8 0.3
04:11 8.3 8.2 99 1031.1 8.3 SW 15.9 0.8 0.3
04:12 8.3 8.2 99 1031.0 13.0 SW 15.9 0.8 0.3
04:13 8.3 8.2 99 1030.9 11.4 SW 15.9 0.8 0.3
04:14 8.3 8.2 99 1030.9 9.8 SW 15.9 0.8 0.3
04:15 8.3 8.2 99 1031.0 15.2 WSW 15.9 0.0 0.3
04:16 8.3 8.2 99 1030.8 13.0 SW 15.9 0.0 0.3
04:17 8.3 8.2 99 1031.1 13.0 WSW 15.9 0.0 0.3
04:19 8.2 8.1 99 1030.9 12.1 NW 15.9 0.0 0.3
04:20 8.3 8.2 99 1030.8 11.4 SW 15.2 0.0 0.3
04:21 8.2 8.1 99 1030.9 11.4 SW 15.2 0.0 0.3
04:22 8.3 8.2 99 1030.9 12.1 WSW 15.2 0.0 0.3
04:23 8.3 8.2 99 1031.0 8.3 SW 15.2 0.0 0.3
04:24 8.3 8.2 99 1030.8 9.2 SW 15.2 0.0 0.3
04:25 8.2 8.1 99 1030.8 14.5 WSW 15.2 0.0 0.3
04:26 8.3 8.2 99 1030.7 12.1 NW 14.5 0.0 0.3
04:27 8.3 8.2 99 1030.8 8.3 W 14.5 0.0 0.3
04:28 8.3 8.2 99 1030.6 10.7 NW 14.5 0.0 0.3
04:29 8.2 8.1 99 1030.6 13.0 SW 15.9 0.0 0.3
04:30 8.3 8.2 99 1030.7 10.7 WNW 15.9 0.0 0.3
04:31 8.2 8.1 99 1030.9 11.4 SW 15.9 0.0 0.3
04:32 8.2 8.1 99 1030.6 11.4 NW 15.9 0.0 0.3
04:33 8.2 8.1 99 1030.8 13.0 SW 15.9 0.0 0.3
04:34 8.2 8.1 99 1030.8 9.8 WSW 15.9 0.0 0.3
04:35 8.2 8.1 99 1030.7 10.7 SW 15.9 0.0 0.3
04:36 8.2 8.1 99 1030.6 12.1 NW 15.9 0.0 0.3
04:37 8.2 8.1 99 1030.7 13.6 SW 15.9 0.0 0.3
04:39 8.2 8.1 99 1030.8 14.5 SW 14.5 0.0 0.3
04:40 8.2 8.1 99 1030.7 11.4 WSW 14.5 0.0 0.3
04:41 8.2 8.1 99 1030.6 9.8 S 14.5 0.0 0.3
04:42 8.2 8.1 99 1030.6 13.6 SW 14.5 0.0 0.3
04:43 8.2 8.1 99 1030.5 10.7 NW 14.5 0.0 0.3
04:44 8.2 8.1 99 1030.8 13.6 NW 14.5 0.0 0.3
04:45 8.2 8.1 99 1030.5 9.8 WSW 14.5 0.0 0.3
04:46 8.2 8.1 99 1030.4 7.6 NW 14.5 0.0 0.3
04:47 8.2 8.1 99 1030.5 9.8 WNW 14.5 0.0 0.3
04:48 8.2 8.1 99 1030.4 8.3 W 14.5 0.0 0.3
04:49 8.2 8.1 99 1030.5 10.7 WSW 14.5 0.0 0.3
04:50 8.2 8.1 99 1030.5 9.2 SW 13.6 0.0 0.3
04:51 8.2 8.1 99 1030.4 11.4 WSW 13.6 0.0 0.3
04:52 8.2 8.1 99 1030.4 13.0 SW 13.6 0.0 0.3
04:53 8.2 8.1 99 1030.4 13.0 W 13.6 0.0 0.3
04:54 8.2 8.1 99 1030.5 12.1 SW 13.0 0.0 0.3
04:55 8.2 8.1 99 1030.3 14.5 SW 14.5 0.0 0.3
04:56 8.2 8.1 99 1030.3 13.6 NW 14.5 0.0 0.3
04:57 8.2 8.1 99 1030.3 15.2 W 15.2 0.0 0.3
04:59 8.2 8.1 99 1030.4 8.3 SW 15.2 0.0 0.3
05:00 8.2 8.1 99 1030.6 8.3 SW 15.2 0.0 0.3
05:01 8.2 8.1 99 1030.5 8.3 SW 15.2 0.0 0.3
05:02 8.2 8.1 99 1030.4 8.3 SW 15.2 0.0 0.3
05:03 8.2 8.1 99 1030.4 8.3 SW 15.2 0.0 0.3
05:04 8.2 8.1 99 1030.4 8.3 SW 15.2 0.0 0.3
05:05 8.2 8.1 99 1030.6 13.0 SW 15.2 0.0 0.3
05:06 8.2 8.1 99 1030.4 20.6 WNW 20.6 0.0 0.3
05:07 8.2 8.1 99 1030.4 16.8 WNW 20.6 0.0 0.3
05:08 8.2 8.1 99 1030.5 15.2 WSW 20.6 0.0 0.3
05:09 8.2 8.1 99 1030.5 11.4 SW 20.6 0.0 0.3
05:10 8.2 8.1 99 1030.5 9.8 SW 20.6 0.0 0.3
05:11 8.2 8.1 99 1030.5 10.7 W 20.6 0.0 0.3
05:12 8.2 8.1 99 1030.4 9.8 NW 20.6 0.0 0.3
05:13 8.2 8.1 99 1030.5 10.7 SW 20.6 0.0 0.3
05:14 8.2 8.1 99 1030.3 15.9 SW 20.6 0.0 0.3
05:15 8.2 8.1 99 1030.3 12.1 SW 20.6 0.0 0.3
05:16 8.2 8.1 99 1030.4 16.8 SW 16.8 0.0 0.3
05:17 8.2 8.1 99 1030.3 10.7 N 16.8 0.0 0.3
05:18 8.2 8.1 99 1030.4 9.8 NW 16.8 0.0 0.3
05:19 8.2 8.1 99 1030.1 12.1 SW 16.8 0.0 0.3
05:20 8.2 8.1 99 1030.3 9.2 SW 16.8 0.0 0.4
05:22 8.3 8.2 99 1030.3 11.4 SW 16.8 0.8 0.4
05:23 8.2 8.1 99 1030.2 12.1 WNW 16.8 0.8 0.4
05:24 8.3 8.2 99 1030.2 12.1 SW 16.8 0.8 0.4
05:25 8.3 8.2 99 1030.1 16.8 SW 16.8 0.8 0.4
05:26 8.3 8.2 99 1030.3 13.6 NE 16.8 0.0 0.4
05:27 8.3 8.2 99 1030.2 15.9 NW 16.8 0.0 0.4
05:28 8.3 8.2 99 1030.3 14.5 SW 16.8 0.0 0.4
05:29 8.3 8.2 99 1030.3 17.4 WSW 17.4 0.0 0.4
05:30 8.3 8.2 99 1030.2 17.4 WSW 17.4 0.0 0.4
05:31 8.3 8.2 99 1030.2 17.4 SW 17.4 0.8 0.4
05:32 8.3 8.2 99 1030.1 13.6 SW 17.4 0.8 0.4
05:33 8.4 8.3 99 1030.3 16.8 SW 17.4 0.8 0.4
05:34 8.4 8.3 99 1030.1 15.2 W 17.4 0.8 0.4
05:35 8.4 8.3 99 1030.2 13.6 W 17.4 0.8 0.4
05:36 8.4 8.3 99 1030.3 11.4 WNW 17.4 0.0 0.4
05:37 8.4 8.3 99 1030.2 13.6 W 17.4 0.0 0.4
05:38 8.4 8.3 99 1030.0 15.9 NNW 17.4 0.0 0.4
05:39 8.4 8.3 99 1030.0 19.7 SW 19.7 0.0 0.4
05:40 8.4 8.3 99 1030.3 15.9 SW 19.7 0.0 0.4
05:41 8.4 8.3 99 1030.2 14.5 SW 19.7 0.0 0.4
05:43 8.4 8.3 99 1030.2 13.6 NW 19.7 0.0 0.4
05:44 8.4 8.3 99 1030.2 13.6 NW 19.7 0.0 0.4
05:45 8.6 8.5 99 1030.1 17.4 SW 19.7 0.0 0.4
05:46 8.5 8.4 99 1030.3 11.4 SW 19.7 0.0 0.4
05:47 8.5 8.4 99 1030.2 10.7 SW 19.7 0.0 0.4
05:48 8.5 8.4 99 1030.3 9.2 W 19.7 0.0 0.4
05:49 8.5 8.4 99 1030.1 12.1 WSW 19.7 0.0 0.4
05:50 8.5 8.4 99 1030.3 15.9 SW 17.4 0.0 0.4
05:51 8.5 8.4 99 1030.3 13.0 SW 17.4 0.0 0.4
05:52 8.5 8.4 99 1030.2 13.0 SW 17.4 0.0 0.4
05:53 8.5 8.4 99 1030.1 17.4 N 17.4 0.0 0.4
05:54 8.5 8.4 99 1030.3 18.3 W 18.3 0.0 0.4
05:55 8.5 8.4 99 1030.2 17.4 SW 18.3 0.0 0.4
05:56 8.5 8.4 99 1030.3 16.8 N 18.3 0.0 0.4
05:57 8.5 8.4 99 1030.3 19.0 W 19.0 0.0 0.4
05:58 8.5 8.4 99 1030.3 19.7 SW 19.7 0.0 0.4
05:59 8.5 8.4 99 1030.3 18.3 W 19.7 0.0 0.4
06:00 8.5 8.4 99 1030.3 18.3 W 19.7 0.0 0.4
06:02 8.6 8.5 99 1030.2 16.8 SW 19.7 0.0 0.4
06:03 8.6 8.5 99 1030.2 16.8 SW 19.7 0.0 0.4
06:04 8.6 8.5 99 1030.3 15.9 SW 19.7 0.0 0.4
06:05 8.6 8.5 99 1030.1 13.0 SW 19.7 0.0 0.4
06:06 8.6 8.5 99 1030.3 14.5 NW 19.7 0.0 0.4
06:07 8.5 8.4 99 1030.2 12.1 WSW 19.7 0.0 0.4
06:08 8.5 8.4 99 1030.2 9.8 WSW 19.7 0.0 0.4
06:09 8.6 8.5 99 1030.2 13.0 SW 18.3 0.0 0.4
06:10 8.6 8.5 99 1030.2 14.5 W 18.3 0.0 0.4
06:11 8.6 8.5 99 1030.1 10.7 W 17.4 0.0 0.4
06:12 8.6 8.5 99 1030.1 9.2 W 17.4 0.8 0.5
06:13 8.6 8.5 99 1030.2 10.7 NW 15.9 0.8 0.5
06:14 8.6 8.5 99 1030.0 11.4 W 14.5 0.8 0.6
06:15 8.6 8.5 99 1030.3 11.4 W 14.5 1.5 0.6
06:16 8.6 8.5 99 1030.2 12.1 W 14.5 1.5 0.6
06:17 8.6 8.5 99 1030.0 11.4 WSW 14.5 0.8 0.6
06:18 8.6 8.5 99 1030.3 12.1 SW 14.5 0.8 0.6
06:19 8.6 8.5 99 1030.1 9.2 NW 14.5 0.8 0.6
06:21 8.6 8.5 99 1030.2 10.7 W 12.1 0.0 0.6
06:22 8.6 8.5 99 1030.2 8.3 SW 12.1 0.0 0.6
06:23 8.6 8.5 99 1030.3 17.4 NW 17.4 0.0 0.6
06:24 8.6 8.5 99 1030.2 12.1 SW 17.4 0.0 0.6
06:25 8.6 8.5 99 1030.3 11.4 NW 17.4 0.0 0.6
06:26 8.6 8.5 99 1030.0 13.0 W 17.4 0.8 0.6
06:27 8.6 8.5 99 1030.0 15.2 SW 17.4 0.8 0.6
06:28 8.6 8.5 99 1030.1 13.6 SW 17.4 0.8 0.6
06:29 8.7 8.6 99 1030.0 16.8 SW 17.4 0.8 0.6
06:30 8.7 8.6 99 1029.9 11.4 SW 17.4 0.8 0.6
06:31 8.7 8.6 99 1030.0 9.8 S 17.4 0.0 0.6
06:32 8.7 8.6 99 1030.0 15.2 W 17.4 0.0 0.6
06:33 8.7 8.6 99 1029.9 14.5 SW 16.8 0.0 0.6
06:34 8.7 8.6 99 1030.1 9.8 SW 16.8 0.0 0.6
06:35 8.7 8.6 99 1030.0 12.1 W 16.8 0.0 0.7
06:36 8.7 8.6 99 1030.0 18.3 SW 18.3 0.8 0.7
06:37 8.7 8.6 99 1030.1 13.0 SW 18.3 0.8 0.7
06:38 8.7 8.6 99 1029.8 17.4 WNW 18.3 0.8 0.7
06:40 8.7 8.6 99 1029.9 11.4 NW 18.3 0.8 0.7
06:41 8.7 8.6 99 1030.0 10.7 NW 18.3 0.0 0.7
06:42 8.7 8.6 99 1029.9 11.4 W 18.3 0.0 0.7
06:43 8.7 8.6 99 1030.0 15.9 SW 18.3 0.0 0.7
06:44 8.7 8.6 99 1030.1 13.0 SW 18.3 0.0 0.7
06:45 8.7 8.6 99 1029.9 18.3 NW 18.3 0.0 0.7
06:46 8.7 8.6 99 1029.9 9.8 NW 18.3 0.0 0.7
06:47 8.7 8.6 99 1030.0 9.8 SW 18.3 0.0 0.7
06:48 8.7 8.6 99 1029.8 15.9 S 18.3 0.0 0.7
06:49 8.7 8.6 99 1029.9 15.9 WSW 18.3 0.0 0.7
06:50 8.7 8.6 99 1029.8 7.6 W 18.3 0.0 0.7
06:51 8.7 8.6 99 1029.9 10.7 WSW 18.3 0.0 0.7
06:52 8.7 8.6 99 1029.9 9.8 NW 18.3 0.0 0.7
06:53 8.7 8.6 99 1029.7 10.7 W 18.3 0.0 0.7
06:54 8.7 8.6 99 1029.9 11.4 SW 18.3 0.0 0.7
06:55 8.6 8.5 99 1029.9 13.0 W 15.9 0.0 0.7
06:56 8.6 8.5 99 1029.8 9.2 W 15.9 0.0 0.7
06:57 8.6 8.5 99 1029.7 8.3 W 15.9 0.0 0.7
06:59 8.6 8.5 99 1029.5 11.4 WSW 13.0 0.0 0.7
07:00 8.6 8.5 99 1029.6 11.4 WSW 13.0 0.0 0.7
07:01 8.6 8.5 99 1029.6 9.8 SW 13.0 0.0 0.7
07:02 8.6 8.5 99 1029.5 9.8 SW 13.0 0.0 0.7
07:03 8.6 8.5 99 1029.5 9.8 SW 13.0 0.0 0.7
07:05 8.6 8.5 99 1029.4 11.4 W 13.0 0.0 0.7
07:06 8.6 8.5 99 1029.5 12.1 W 12.1 0.0 0.7
07:07 8.6 8.5 99 1029.6 9.2 SW 12.1 0.0 0.7
07:08 8.7 8.6 99 1029.4 11.4 WSW 12.1 0.0 0.7
07:09 8.6 8.5 99 1029.6 9.8 SW 14.5 0.0 0.7
07:10 8.6 8.5 99 1029.5 8.3 SW 14.5 0.0 0.7
07:11 8.6 8.5 99 1029.6 11.4 SW 14.5 0.0 0.7
07:12 8.6 8.5 99 1029.5 12.1 SW 14.5 0.0 0.7
07:13 8.7 8.6 99 1029.4 6.9 SW 14.5 0.0 0.7
07:14 8.7 8.6 99 1029.4 6.9 NW 14.5 0.0 0.7
07:15 8.7 8.6 99 1029.5 9.8 SW 14.5 0.0 0.7
07:16 8.7 8.6 99 1029.4 12.1 WSW 14.5 0.0 0.7
07:17 8.7 8.6 99 1029.5 13.0 WSW 14.5 0.0 0.7
07:18 8.7 8.6 99 1029.3 13.6 SW 14.5 0.0 0.7
07:19 8.7 8.6 99 1029.4 17.4 SW 17.4 0.0 0.7
07:20 8.7 8.6 99 1029.5 18.3 SW 18.3 0.0 0.7
07:21 8.7 8.6 99 1029.4 18.3 WSW 18.3 0.0 0.7
07:22 8.8 8.7 99 1029.3 19.0 SW 19.0 0.0 0.7
07:24 8.8 8.7 99 1029.4 11.4 NW 19.0 0.0 0.7
07:25 8.8 8.7 99 1029.5 13.6 WNW 19.0 0.0 0.7
07:26 8.8 8.7 99 1029.3 14.5 SW 19.0 0.0 0.7
07:27 8.8 8.7 99 1029.5 13.0 SW 19.0 0.8 0.8
07:28 8.8 8.7 99 1029.3 16.8 W 19.0 0.8 0.8
07:29 8.8 8.7 99 1029.5 10.7 S 19.0 0.8 0.8
07:30 8.8 8.7 99 1029.5 13.6 WSW 19.0 0.8 0.8
07:31 8.8 8.7 99 1029.5 14.5 NW 19.0 0.8 0.8
07:32 8.8 8.7 99 1029.3 13.6 W 19.0 0.0 0.8
07:33 8.9 8.8 99 1029.5 15.2 SW 16.8 0.0 0.8
07:34 8.8 8.7 99 1029.4 15.9 NW 16.8 0.0 0.8
07:35 8.8 8.7 99 1029.4 12.1 W 16.8 0.0 0.8
07:36 8.9 8.8 99 1029.4 8.3 W 16.8 0.0 0.8
07:38 8.9 8.8 99 1029.3 8.3 S 16.8 0.0 0.8
07:39 8.9 8.8 99 1029.4 15.9 SW 15.9 0.0 0.8
07:40 8.9 8.8 99 1029.3 16.8 SW 16.8 0.0 0.8
07:41 8.9 8.8 99 1029.2 13.0 SW 16.8 0.0 0.8
07:42 8.9 8.8 99 1029.4 9.2 WNW 16.8 0.0 0.8
07:43 8.9 8.8 99 1029.3 17.4 SW 17.4 0.0 0.8
07:44 8.8 8.7 99 1029.3 15.9 SW 17.4 0.0 0.8
07:45 8.9 8.8 99 1029.3 18.3 SW 18.3 0.0 0.8
07:46 8.9 8.8 99 1029.3 15.9 SW 18.3 0.0 0.8
07:47 8.9 8.8 99 1029.3 15.2 NW 18.3 0.0 0.8
07:48 8.9 8.8 99 1029.3 13.6 WSW 18.3 0.0 0.8
07:49 8.9 8.8 99 1029.4 14.5 SW 18.3 0.0 0.8
07:50 8.9 8.8 99 1029.3 13.6 SW 18.3 0.0 0.8
07:51 8.9 8.8 99 1029.3 14.5 SW 18.3 0.0 0.8
07:52 8.9 8.8 99 1029.3 13.0 W 18.3 0.0 0.8
07:53 8.9 8.8 99 1029.4 15.9 NW 18.3 0.0 0.8
07:54 8.8 8.7 99 1029.4 13.0 S 18.3 0.0 0.8
07:56 8.8 8.7 99 1029.2 23.5 SW 23.5 0.0 0.8
07:57 8.9 8.8 99 1029.5 14.5 WSW 23.5 0.0 0.8
07:58 8.9 8.8 99 1029.5 19.0 NNW 23.5 0.0 0.8
07:59 8.8 8.7 99 1029.6 11.4 W 23.5 0.0 0.8
08:00 8.9 8.8 99 1029.6 14.5 SW 23.5 0.0 0.8
08:01 8.8 8.7 99 1029.6 19.7 SW 23.5 0.0 0.8
08:02 8.8 8.7 99 1029.6 14.5 NW 23.5 0.0 0.8
08:03 8.8 8.7 99 1029.6 14.5 NW 23.5 0.0 0.8
08:04 8.8 8.7 99 1029.8 11.4 SW 23.5 0.0 0.8
08:05 8.9 8.8 99 1029.8 15.2 SW 23.5 0.0 0.8
08:06 8.9 8.8 99 1029.6 10.7 SW 23.5 0.0 0.8
08:07 8.9 8.8 99 1029.6 11.4 SW 20.6 0.0 0.8
08:08 8.9 8.8 99 1029.6 12.1 WSW 19.7 0.0 0.8
08:09 8.9 8.8 99 1029.7 10.7 SW 19.7 0.0 0.8
08:10 8.9 8.8 99 1029.7 14.5 W 19.7 0.0 0.8
08:11 8.9 8.8 99 1029.7 15.9 SW 19.7 0.0 0.8
08:12 8.9 8.8 99 1029.8 15.2 SW 16.8 0.0 0.8
08:13 9.0 8.9 99 1029.7 14.5 SW 16.8 0.0 0.8
08:14 8.9 8.8 99 1029.7 11.4 SW 15.9 0.0 0.8
08:15 8.9 8.8 99 1029.7 20.6 N 20.6 0.0 0.8
08:16 9.0 8.9 99 1029.7 15.2 WSW 20.6 0.0 0.8
08:17 9.0 8.9 99 1029.6 13.6 W 20.6 0.0 0.8
08:18 9.0 8.9 99 1029.6 13.6 W 20.6 0.0 0.8
08:19 9.0 8.9 99 1029.6 14.5 SW 20.6 0.0 0.8
08:20 9.0 8.9 99 1029.6 11.4 W 20.6 0.0 0.8
08:21 9.0 8.9 99 1029.4 13.6 W 20.6 0.0 0.8
08:22 9.0 8.9 99 1029.6 15.9 N 20.6 0.0 0.8
08:23 9.0 8.9 99 1029.4 15.9 N 20.6 0.0 0.8
08:24 9.0 8.9 99 1029.5 15.2 NW 20.6 0.0 0.8
08:25 9.0 8.9 99 1029.5 15.2 NW 20.6 0.0 0.8
08:26 9.0 8.9 99 1029.5 15.2 SW 15.9 0.0 0.8
08:27 9.0 8.9 99 1029.4 13.0 W 15.9 0.0 0.8
08:28 9.0 8.9 99 1029.5 12.1 NW 15.9 0.0 0.8
08:29 9.0 8.9 99 1029.5 6.0 N 15.9 0.0 0.8
08:30 9.0 8.9 99 1029.5 7.6 SW 15.9 0.0 0.8
08:31 9.0 8.9 99 1029.7 10.7 W 15.9 0.0 0.8
08:32 9.0 8.9 99 1029.4 12.1 WSW 15.9 0.0 0.8
08:33 9.0 8.9 99 1029.6 14.5 SW 15.2 0.0 0.8
08:34 9.0 8.9 99 1029.5 9.8 WSW 15.2 0.0 0.8
08:35 9.0 8.9 99 1029.5 13.0 W 15.2 0.0 0.8
08:36 9.0 8.9 99 1029.3 19.0 W 19.0 0.0 0.8
08:37 9.1 9.0 99 1029.5 13.0 WSW 19.0 0.0 0.8
08:38 9.1 9.0 99 1029.6 13.0 WSW 19.0 0.0 0.8
08:39 9.1 9.0 99 1029.5 11.4 W 19.0 0.0 0.8
08:40 9.1 9.0 99 1029.5 11.4 W 19.0 0.0 0.8
08:41 9.1 9.0 99 1029.6 15.2 WSW 19.0 0.0 0.8
08:42 9.1 9.0 99 1029.5 13.6 NW 19.0 0.0 0.8
08:43 9.1 9.0 99 1029.4 14.5 N 19.0 0.0 0.8
08:44 9.1 9.0 99 1029.5 14.5 N 19.0 0.0 0.8
08:45 9.1 9.0 99 1029.5 10.7 W 19.0 0.0 0.8
08:46 9.1 9.0 99 1029.5 14.5 W 19.0 0.0 0.8
08:47 9.1 9.0 99 1029.5 14.5 W 19.0 0.0 0.8
08:48 9.1 9.0 99 1029.5 19.7 WSW 20.6 0.8 0.8
08:49 9.1 9.0 99 1029.6 14.5 WNW 20.6 0.8 0.8
08:50 9.1 9.0 99 1029.5 14.5 SW 20.6 0.8 0.8
08:51 9.1 9.0 99 1029.6 13.0 W 20.6 0.8 0.8
08:52 9.1 9.0 99 1029.7 13.0 SW 20.6 0.8 0.8
08:53 9.1 9.0 99 1029.7 16.8 SW 20.6 0.0 0.8
08:54 9.1 9.0 99 1029.7 15.9 WNW 20.6 0.0 0.8
08:55 9.1 9.0 99 1029.6 18.3 NW 20.6 0.0 0.8
08:56 9.1 9.0 99 1029.6 16.8 SW 20.6 0.0 0.8
08:57 9.1 9.0 99 1029.5 13.0 SW 20.6 0.0 0.8
08:58 9.1 9.0 99 1029.6 9.8 WNW 18.3 0.0 0.8
08:59 9.1 9.0 99 1029.7 9.8 WNW 18.3 0.0 0.8
09:00 9.1 9.0 99 1029.7 13.0 W 18.3 0.0 0.8
09:01 9.1 9.0 99 1029.7 13.0 W 18.3 0.0 0.8
09:02 9.1 9.0 99 1029.7 13.0 W 18.3 0.0 0.8
09:03 9.1 9.0 99 1029.7 13.0 W 18.3 0.0 0.8
09:04 9.1 9.0 99 1029.7 13.0 W 18.3 0.0 0.8
09:05 9.1 9.0 99 1029.7 13.0 W 18.3 0.0 0.8
09:06 9.2 9.1 99 1029.8 14.5 SW 16.8 0.0 0.8
09:07 9.2 9.1 99 1029.7 14.5 SW 14.5 0.0 0.8
09:08 9.2 9.1 99 1029.7 13.6 SW 14.5 0.0 0.8
09:09 9.2 9.1 99 1029.6 14.5 SW 14.5 0.0 0.8
09:10 9.2 9.1 99 1029.5 10.7 WNW 14.5 0.0 0.8
09:11 9.2 9.1 99 1029.6 9.8 W 14.5 0.0 0.8
09:12 9.2 9.1 99 1029.6 12.1 W 14.5 0.0 0.8
09:13 9.2 9.1 99 1029.6 15.2 WSW 15.2 0.0 0.8
09:14 9.2 9.1 99 1029.5 15.9 WSW 15.9 0.0 0.8
09:15 9.2 9.1 99 1029.6 15.2 SW 15.9 0.0 0.8
09:16 9.2 9.1 99 1029.5 11.4 SW 15.9 0.0 0.8
09:17 9.2 9.1 99 1029.5 13.0 ESE 15.9 0.0 0.8
09:18 9.2 9.1 99 1029.5 13.0 ESE 15.9 0.0 0.8
09:19 9.2 9.1 99 1029.6 13.0 ESE 15.9 0.0 0.8
09:20 9.2 9.1 99 1029.4 15.2 SW 15.9 0.0 0.8
09:21 9.2 9.1 99 1029.3 15.2 SW 15.9 0.0 0.8
09:22 9.3 9.2 99 1029.4 10.7 SW 15.9 0.0 0.8
09:23 9.3 9.2 99 1029.3 10.7 SW 15.9 0.0 0.8
09:24 9.3 9.2 99 1029.3 13.0 W 15.9 0.0 0.8
09:25 9.3 9.2 99 1029.4 11.4 SW 15.2 0.0 0.8
09:26 9.3 9.2 99 1029.3 19.7 SW 19.7 0.0 0.8
09:27 9.3 9.2 99 1029.4 10.7 W 19.7 0.0 0.8
09:28 9.3 9.2 99 1029.3 19.0 W 19.7 0.0 0.8
09:29 9.3 9.2 99 1029.4 14.5 WSW 19.7 0.0 0.8
09:30 9.3 9.2 99 1029.3 14.5 WSW 19.7 0.0 0.8
09:31 9.3 9.2 99 1029.3 13.0 SW 19.7 0.8 0.9
09:32 9.3 9.2 99 1029.3 15.2 SW 19.7 0.8 0.9
09:33 9.3 9.2 99 1029.4 14.5 NW 19.7 0.8 0.9
09:34 9.3 9.2 99 1029.5 10.7 W 19.7 0.8 0.9
09:35 9.3 9.2 99 1029.3 6.9 W 19.7 0.8 0.9
09:36 9.3 9.2 99 1029.5 6.9 SW 19.7 0.0 0.9
09:37 9.3 9.2 99 1029.3 9.8 SE 19.0 0.0 0.9
09:38 9.3 9.2 99 1029.4 8.3 SW 19.0 0.0 0.9
09:39 9.3 9.2 99 1029.3 13.6 SE 15.2 0.8 0.9
09:40 9.3 9.2 99 1029.3 14.5 W 15.2 0.8 0.9
09:41 9.3 9.2 99 1029.3 13.0 NW 15.2 0.8 0.9
09:42 9.3 9.2 99 1029.4 9.2 NW 14.5 0.8 0.9
09:43 9.3 9.2 99 1029.1 7.6 NW 14.5 0.8 0.9
09:44 9.3 9.2 99 1029.1 11.4 NW 14.5 0.0 0.9
09:45 9.3 9.2 99 1029.2 9.8 SW 14.5 0.0 0.9
09:46 9.3 9.2 99 1029.2 9.8 SW 14.5 0.0 0.9
09:47 9.3 9.2 99 1029.3 15.2 W 15.2 0.0 0.9
09:48 9.3 9.2 99 1029.2 11.4 NW 15.2 0.0 0.9
09:49 9.3 9.2 99 1029.1 10.7 W 15.2 0.0 0.9
09:50 9.3 9.2 99 1028.9 17.4 NW 17.4 0.0 0.9
09:51 9.3 9.2 99 1029.1 15.2 SW 17.4 0.0 0.9
09:52 9.3 9.2 99 1029.3 12.1 NW 17.4 0.0 0.9
09:53 9.3 9.2 99 1029.1 13.6 SW 19.7 0.0 0.9
09:54 9.3 9.2 99 1029.2 13.6 NW 19.7 0.0 0.9
09:55 9.3 9.2 99 1029.2 10.7 NW 19.7 0.0 0.9
09:56 9.3 9.2 99 1029.2 10.7 WSW 19.7 0.0 0.9
09:57 9.3 9.2 99 1029.2 17.4 N 19.7 0.0 0.9
09:58 9.3 9.2 99 1029.2 17.4 S 19.7 0.0 0.9
09:59 9.3 9.2 99 1029.3 18.3 SW 19.7 0.0 0.9
10:00 9.3 9.2 99 1029.2 15.9 W 19.7 0.0 0.9
10:01 9.3 9.2 99 1029.0 15.9 W 19.7 0.0 0.9
10:02 9.3 9.2 99 1029.0 16.8 N 19.7 0.0 0.9
10:03 9.3 9.2 99 1028.9 19.0 SW 19.7 0.0 0.9
10:04 9.4 9.3 99 1029.1 16.8 W 19.0 0.0 0.9
10:05 9.3 9.2 99 1029.0 13.0 S 19.0 0.0 0.9
10:06 9.3 9.2 99 1029.0 15.2 NW 19.0 0.0 0.9
10:07 9.3 9.2 99 1029.1 16.8 N 19.0 0.0 0.9
10:08 9.3 9.2 99 1029.0 17.4 W 19.0 0.0 0.9
10:09 9.4 9.3 99 1028.8 13.6 NW 19.0 0.0 0.9
10:10 9.3 9.2 99 1029.0 15.9 SW 19.0 0.0 0.9
10:11 9.3 9.2 99 1029.1 15.2 WNW 19.0 0.0 0.9
10:12 9.3 9.2 99 1029.1 13.6 SW 19.0 0.0 0.9
10:13 9.3 9.2 99 1029.0 15.9 NW 19.0 0.0 0.9
10:14 9.3 9.2 99 1029.0 15.9 NW 18.3 0.0 0.9
10:15 9.4 9.3 99 1029.1 12.1 SW 18.3 0.0 0.9
10:16 9.5 9.4 99 1028.9 18.3 SW 18.3 0.0 0.9
10:17 9.4 9.3 99 1029.2 15.9 NW 18.3 0.0 0.9
10:18 9.4 9.3 99 1029.2 11.4 SE 18.3 0.0 0.9
10:19 9.4 9.3 99 1029.2 13.0 SW 19.0 0.0 0.9
10:20 9.4 9.3 99 1029.2 16.8 SW 19.0 0.0 0.9
10:21 9.4 9.3 99 1029.0 19.7 W 19.7 0.0 0.9
10:22 9.4 9.3 99 1029.1 14.5 NW 19.7 0.0 0.9
10:23 9.4 9.3 99 1029.2 14.5 SE 19.7 0.0 0.9
10:24 9.4 9.3 99 1029.0 14.5 SE 19.7 0.0 0.9
10:25 9.4 9.3 99 1029.1 13.0 NW 19.7 0.0 0.9
10:26 9.4 9.3 99 1028.9 15.9 WNW 19.7 0.0 0.9
10:27 9.4 9.3 99 1028.9 16.8 SW 19.7 0.8 1.0
10:28 9.5 9.4 99 1029.0 13.6 SW 19.7 0.8 1.0
10:29 9.5 9.4 99 1028.9 16.8 NW 19.7 0.8 1.0
10:30 9.5 9.4 99 1029.0 14.5 NW 19.7 0.8 1.0
10:31 9.5 9.4 99 1029.1 14.5 NW 19.7 0.8 1.0
10:32 9.5 9.4 99 1028.8 15.9 NNW 16.8 0.0 1.0
10:33 9.5 9.4 99 1029.1 18.3 N 18.3 0.0 1.0
10:34 9.5 9.4 99 1029.0 16.8 SW 18.3 0.0 1.0
10:35 9.5 9.4 99 1029.0 19.7 W 19.7 0.0 1.0
10:36 9.5 9.4 99 1029.1 14.5 SW 19.7 0.0 1.0
10:37 9.5 9.4 99 1029.0 14.5 NW 19.7 0.0 1.0
10:38 9.5 9.4 99 1029.1 15.2 W 19.7 0.0 1.0
10:39 9.5 9.4 99 1028.9 22.1 W 22.1 0.0 1.0
10:40 9.5 9.4 99 1029.0 17.4 WSW 22.1 0.0 1.0
10:41 9.5 9.4 99 1028.9 13.6 NW 22.1 0.0 1.0
10:42 9.5 9.4 99 1028.9 13.6 NW 22.1 0.0 1.0
10:43 9.5 9.4 99 1029.0 11.4 NW 22.1 0.0 1.0
10:44 9.5 9.4 99 1028.9 12.1 NW 22.1 0.0 1.0
10:45 9.6 9.5 99 1029.0 8.3 W 22.1 0.0 1.0
10:46 9.6 9.5 99 1028.9 14.5 SW 22.1 0.0 1.0
10:47 9.5 9.4 99 1029.1 20.6 W 22.1 0.0 1.0
10:48 9.6 9.5 99 1029.0 19.0 NW 22.1 0.0 1.0
10:50 9.5 9.4 99 1029.0 15.2 NW 20.6 0.0 1.0
10:51 9.6 9.5 99 1028.8 22.1 SW 22.1 0.0 1.0
10:52 9.6 9.5 99 1029.0 15.2 NW 22.1 0.0 1.0
10:53 9.5 9.4 99 1028.9 16.8 W 22.1 0.0 1.0
10:54 9.6 9.5 99 1029.0 15.9 NW 22.1 0.0 1.0
10:55 9.6 9.5 99 1028.8 13.0 W 22.1 0.0 1.0
10:56 9.5 9.4 99 1029.0 13.6 NW 22.1 0.0 1.0
10:57 9.5 9.4 99 1028.8 13.6 W 22.1 0.0 1.0
10:58 9.6 9.5 99 1029.0 8.3 W 22.1 0.0 1.0
10:59 9.5 9.4 99 1028.8 16.8 NW 22.1 0.8 1.1
11:00 9.6 9.5 99 1029.1 13.6 WSW 22.1 0.8 1.1
11:01 9.6 9.5 99 1028.9 13.6 WSW 22.1 0.8 1.1
11:02 9.5 9.4 99 1028.8 8.3 W 17.4 0.8 1.1
11:03 9.5 9.4 99 1028.8 18.3 W 18.3 0.8 1.1
11:04 9.6 9.5 99 1028.8 9.2 NW 18.3 0.0 1.1
11:05 9.6 9.5 99 1028.7 11.4 SW 18.3 0.0 1.1
11:06 9.6 9.5 99 1028.7 13.0 NW 18.3 0.0 1.1
11:07 9.6 9.5 99 1028.8 15.2 WSW 18.3 0.0 1.1
11:08 9.6 9.5 99 1028.7 15.2 S 18.3 0.0 1.1
11:09 9.6 9.5 99 1028.6 12.1 SW 18.3 0.0 1.1
11:10 9.6 9.5 99 1028.6 20.6 SW 20.6 0.0 1.1
11:11 9.6 9.5 99 1028.7 13.6 SW 20.6 0.0 1.1
11:12 9.6 9.5 99 1028.7 16.8 WNW 20.6 0.0 1.1
11:13 9.6 9.5 99 1028.8 15.2 W 20.6 0.0 1.1
11:14 9.6 9.5 99 1028.8 15.9 S 20.6 0.0 1.1
11:15 9.6 9.5 99 1028.8 15.9 S 20.6 0.0 1.1
11:16 9.6 9.5 99 1028.7 13.0 NE 20.6 0.0 1.1
11:17 9.6 9.5 99 1028.5 11.4 SW 20.6 0.0 1.1
11:18 9.6 9.5 99 1028.7 11.4 S 20.6 0.0 1.1
11:19 9.6 9.5 99 1028.6 13.6 SW 20.6 0.0 1.1
11:20 9.7 9.6 99 1028.7 15.2 SW 20.6 0.0 1.1
11:21 9.7 9.6 99 1028.5 12.1 SW 16.8 0.0 1.1
11:22 9.6 9.5 99 1028.6 18.3 SW 18.3 0.0 1.1
11:23 9.7 9.6 99 1028.8 13.0 N 18.3 0.0 1.1
11:24 9.7 9.6 99 1028.8 13.0 N 19.0 0.0 1.1
11:25 9.7 9.6 99 1028.7 12.1 SW 19.0 0.0 1.1
11:26 9.7 9.6 99 1028.8 13.6 SW 19.0 0.0 1.1
11:27 9.7 9.6 99 1028.7 16.8 SW 19.0 0.0 1.1
11:28 9.7 9.6 99 1028.7 19.7 N 19.7 0.0 1.1
11:29 9.7 9.6 99 1028.7 19.7 N 19.7 0.0 1.1
11:30 9.7 9.6 99 1028.8 17.4 W 19.7 0.0 1.1
11:31 9.7 9.6 99 1028.8 15.9 W 19.7 0.0 1.1
11:32 9.7 9.6 99 1028.7 11.4 NW 19.7 0.0 1.1
11:33 9.7 9.6 99 1028.6 22.1 SW 22.1 0.0 1.1
11:34 9.7 9.6 99 1028.8 13.6 NW 22.1 0.0 1.1
11:35 9.7 9.6 99 1028.7 17.4 NW 22.1 0.0 1.1
11:36 9.7 9.6 99 1028.8 13.0 N 22.1 0.0 1.1
11:38 9.7 9.6 99 1028.6 14.5 SW 22.1 0.0 1.1
11:39 9.7 9.6 99 1028.7 15.2 W 22.1 0.0 1.1
11:40 9.7 9.6 99 1028.7 16.8 W 22.1 0.0 1.1
11:41 9.7 9.6 99 1028.6 13.0 SW 22.1 0.0 1.1
11:42 9.7 9.6 99 1028.6 7.6 SW 22.1 0.8 1.1
11:43 9.7 9.6 99 1028.6 10.7 NW 17.4 0.8 1.1
11:44 9.7 9.6 99 1028.7 7.6 S 17.4 0.8 1.1
11:45 9.7 9.6 99 1028.6 15.2 NW 16.8 0.8 1.1
11:46 9.7 9.6 99 1028.5 17.4 W 17.4 0.8 1.1
11:47 9.7 9.6 99 1028.6 16.8 NW 17.4 0.0 1.1
11:48 9.7 9.6 99 1028.6 10.7 NW 22.1 0.0 1.1
11:49 9.7 9.6 99 1028.5 13.6 SW 22.1 0.0 1.1
11:50 9.7 9.6 99 1028.6 18.3 N 22.1 0.0 1.1
11:51 9.7 9.6 99 1028.5 19.0 W 22.1 0.0 1.1
11:52 9.7 9.6 99 1028.4 10.7 NW 22.1 0.8 1.2
11:53 9.7 9.6 99 1028.4 15.9 NW 22.1 0.8 1.2
11:54 9.7 9.6 99 1028.4 11.4 W 22.1 0.8 1.2
11:55 9.7 9.6 99 1028.6 15.9 W 22.1 0.8 1.2
11:56 9.7 9.6 99 1028.5 20.6 NW 22.1 0.8 1.2
11:57 9.7 9.6 99 1028.5 19.0 SW 20.6 0.0 1.2
11:58 9.7 9.6 99 1028.6 14.5 W 20.6 0.0 1.2
11:59 9.7 9.6 99 1028.6 14.5 W 20.6 0.0 1.2
12:00 9.7 9.6 99 1028.5 14.5 NW 20.6 0.0 1.2
12:01 9.7 9.6 99 1028.4 14.5 NW 20.6 0.0 1.2
12:02 9.7 9.6 99 1028.4 14.5 NW 20.6 0.0 1.2
12:03 9.8 9.7 99 1028.4 12.1 WSW 20.6 0.0 1.2
12:04 9.7 9.6 99 1028.3 12.1 N 20.6 0.0 1.2
12:05 9.7 9.6 99 1028.4 15.9 NNW 20.6 0.0 1.2
12:07 9.7 9.6 99 1028.3 15.2 NW 19.0 0.0 1.2
12:08 9.7 9.6 99 1028.3 16.8 NNW 17.4 0.0 1.2
12:09 9.7 9.6 99 1028.2 12.1 SW 17.4 0.0 1.2
12:10 9.7 9.6 99 1028.3 12.1 W 17.4 0.0 1.2
12:11 9.7 9.6 99 1028.3 12.1 NW 17.4 0.0 1.2
12:12 9.7 9.6 99 1028.4 14.5 NW 19.0 0.0 1.2
12:13 9.7 9.6 99 1028.4 14.5 NW 19.0 0.0 1.2
12:14 9.7 9.6 99 1028.2 15.2 NW 19.0 0.0 1.2
12:15 9.8 9.7 99 1028.2 12.1 NW 19.0 0.0 1.2
12:16 9.7 9.6 99 1028.3 15.9 W 19.0 0.0 1.2
12:17 9.7 9.6 99 1028.3 15.9 W 19.0 0.0 1.2
12:18 9.7 9.6 99 1028.3 15.9 E 19.0 0.0 1.2
12:19 9.7 9.6 99 1028.3 15.2 W 19.0 0.0 1.2
12:21 9.7 9.6 99 1028.1 18.3 NW 19.0 0.0 1.2
12:22 9.7 9.6 99 1028.2 17.4 NW 18.3 0.0 1.2
12:23 9.7 9.6 99 1028.1 16.8 N 18.3 0.0 1.2
12:24 9.7 9.6 99 1027.9 15.2 SW 18.3 0.0 1.2
12:25 9.7 9.6 99 1028.0 15.2 NW 18.3 0.0 1.2
12:26 9.7 9.6 99 1028.1 13.6 SW 18.3 0.0 1.2
12:27 9.8 9.7 99 1027.9 13.6 SW 18.3 0.0 1.2
12:28 9.8 9.7 99 1028.0 13.6 SW 18.3 0.0 1.2
12:29 9.6 9.5 99 1027.8 14.5 SW 18.3 0.0 1.2
12:30 9.8 9.7 99 1028.0 17.4 NW 18.3 0.0 1.2
12:31 9.8 9.7 99 1028.0 16.8 NW 18.3 0.0 1.2
12:32 9.8 9.7 99 1027.9 22.1 SW 22.1 0.0 1.2
12:33 9.8 9.7 99 1027.8 15.2 WNW 22.1 0.0 1.2
12:34 9.9 9.8 99 1027.9 15.9 W 22.1 0.0 1.2
12:35 9.9 9.8 99 1027.8 15.2 W 22.1 0.0 1.2
12:37 9.9 9.8 99 1027.7 12.1 W 22.1 0.0 1.2
12:38 9.9 9.8 99 1027.8 18.3 WNW 22.1 0.0 1.2
12:39 9.9 9.8 99 1027.8 10.7 NW 22.1 0.0 1.2
12:40 9.9 9.8 99 1027.7 14.5 N 22.1 0.8 1.3
12:41 9.9 9.8 99 1027.8 16.8 NW 22.1 0.8 1.3
12:42 9.9 9.8 99 1027.8 16.8 NW 22.1 0.8 1.3
12:43 9.9 9.8 99 1027.8 13.0 W 19.7 0.8 1.3
12:44 9.9 9.8 99 1027.9 12.1 WSW 19.7 0.8 1.3
12:45 9.9 9.8 99 1027.8 21.3 NW 21.3 0.0 1.3
12:46 9.9 9.8 99 1027.8 21.3 SW 21.3 0.0 1.3
12:47 9.9 9.8 99 1027.7 9.8 SW 21.3 0.0 1.3
12:48 9.9 9.8 99 1027.6 17.4 SW 21.3 0.0 1.3
12:50 10.0 9.9 99 1027.6 13.0 W 21.3 0.0 1.3
12:51 10.0 9.9 99 1027.8 12.1 SE 21.3 0.0 1.3
12:52 10.0 9.9 99 1027.6 16.8 W 22.8 0.0 1.3
12:53 10.0 9.9 99 1027.7 15.2 NW 22.8 0.0 1.3
12:54 9.9 9.8 99 1027.6 16.8 NW 22.8 0.0 1.3
12:55 9.9 9.8 99 1027.6 19.7 W 22.8 0.8 1.3
12:56 9.9 9.8 99 1027.5 15.9 NW 22.8 0.8 1.3
12:57 9.9 9.8 99 1027.7 13.6 NW 22.8 0.8 1.3
12:58 9.9 9.8 99 1027.6 19.7 N 22.8 0.8 1.3
12:59 9.9 9.8 99 1027.6 9.8 SW 22.8 0.8 1.3
13:00 9.9 9.8 99 1027.4 13.6 NW 22.8 0.0 1.3
13:01 9.9 9.8 99 1027.4 13.6 NW 22.8 0.0 1.3
13:02 9.9 9.8 99 1027.7 15.9 NW 22.8 0.0 1.3
13:03 9.9 9.8 99 1027.3 19.0 SW 19.7 0.0 1.3
13:05 9.8 9.7 99 1027.6 14.5 NW 19.7 0.0 1.3
13:06 9.9 9.8 99 1027.5 17.4 W 19.7 0.0 1.3
13:07 9.8 9.7 99 1027.3 15.2 S 19.7 0.0 1.3
13:08 9.8 9.7 99 1027.5 15.2 WNW 19.7 0.0 1.3
13:09 9.8 9.7 99 1027.4 15.2 NW 19.0 0.0 1.3
13:11 9.9 9.8 99 1027.5 15.2 NW 19.0 0.0 1.3
13:12 9.9 9.8 99 1027.3 12.1 N 21.3 0.0 1.3
13:13 9.9 9.8 99 1027.5 13.0 SW 21.3 0.0 1.3
13:14 9.9 9.8 99 1027.4 11.4 SW 21.3 0.0 1.3
13:15 9.9 9.8 99 1027.3 12.1 ENE 21.3 0.0 1.3
13:16 9.9 9.8 99 1027.5 12.1 W 21.3 0.0 1.3
13:17 9.9 9.8 99 1027.5 12.1 W 21.3 0.0 1.3
13:18 9.9 9.8 99 1027.3 14.5 NW 21.3 0.0 1.3
13:19 9.9 9.8 99 1027.3 23.5 NW 23.5 0.0 1.3
13:20 9.9 9.8 99 1027.4 19.7 NW 23.5 0.0 1.3
13:21 9.9 9.8 99 1027.4 19.7 NW 23.5 0.8 1.4
13:22 9.8 9.7 99 1027.3 19.0 NW 23.5 0.8 1.4
13:23 9.8 9.7 99 1027.4 19.0 NW 23.5 0.8 1.4
13:24 9.8 9.7 99 1027.3 14.5 SW 23.5 0.8 1.4
13:26 9.7 9.6 99 1027.3 17.4 W 23.5 0.8 1.4
13:27 9.7 9.6 99 1027.3 19.0 W 23.5 0.8 1.4
13:28 9.6 9.5 99 1027.3 13.0 NW 23.5 0.8 1.4
13:29 9.6 9.5 99 1027.2 18.3 NW 19.7 0.8 1.4
13:30 9.6 9.5 99 1027.1 12.1 N 19.7 0.8 1.4
13:31 9.6 9.5 99 1027.2 17.4 S 19.0 0.0 1.4
13:32 9.6 9.5 99 1027.0 15.2 NW 19.0 0.0 1.4
13:33 9.6 9.5 99 1027.2 22.1 NW 22.1 0.0 1.4
13:34 9.6 9.5 99 1027.1 19.7 W 22.1 0.0 1.4
13:35 9.6 9.5 99 1027.2 15.9 SW 22.1 0.0 1.4
13:36 9.6 9.5 99 1027.0 12.1 SW 22.1 0.0 1.4
13:37 9.6 9.5 99 1027.1 15.2 NW 22.1 0.0 1.4
13:38 9.6 9.5 99 1027.3 16.8 W 22.1 0.0 1.4
13:39 9.6 9.5 99 1027.1 15.9 WNW 22.1 0.0 1.4
13:41 9.6 9.5 99 1027.1 14.5 NW 22.1 0.0 1.4
13:42 9.6 9.5 99 1027.1 11.4 NW 22.1 0.0 1.4
13:43 9.6 9.5 99 1026.9 13.6 N 20.6 0.0 1.4
13:44 9.6 9.5 99 1027.0 16.8 W 20.6 0.0 1.4
13:45 9.6 9.5 99 1027.1 16.8 NW 20.6 0.0 1.4
13:46 9.6 9.5 99 1027.0 16.8 SW 20.6 0.0 1.4
13:47 9.7 9.6 99 1026.9 13.0 WNW 20.6 0.0 1.4
13:48 9.7 9.6 99 1027.0 17.4 W 20.6 0.0 1.4
13:49 9.6 9.5 99 1027.1 15.9 W 20.6 0.0 1.4
13:50 9.7 9.6 99 1027.1 16.8 NW 20.6 0.0 1.4
13:51 9.7 9.6 99 1027.1 20.6 NW 20.6 0.0 1.4
13:52 9.7 9.6 99 1027.1 15.2 SW 20.6 0.0 1.4
13:53 9.7 9.6 99 1026.9 9.8 NE 20.6 0.0 1.4
13:54 9.7 9.6 99 1026.9 16.8 WSW 20.6 0.0 1.4
13:56 9.7 9.6 99 1027.0 13.6 SW 20.6 0.0 1.4
13:57 9.7 9.6 99 1027.1 13.6 W 20.6 0.0 1.4
13:58 9.7 9.6 99 1027.1 16.8 NW 20.6 0.0 1.4
13:59 9.7 9.6 99 1026.9 19.0 SW 20.6 0.0 1.4
14:00 9.7 9.6 99 1027.0 12.1 NW 20.6 0.0 1.4
14:01 9.7 9.6 99 1027.0 12.1 NW 20.6 0.0 1.4
14:02 9.7 9.6 99 1027.0 17.4 NW 19.7 0.0 1.4
14:03 9.7 9.6 99 1027.1 9.8 NW 19.7 0.0 1.4
14:04 9.6 9.5 99 1027.0 14.5 W 19.7 0.0 1.4
14:05 9.7 9.6 99 1027.0 14.5 NW 19.7 0.0 1.4
14:06 9.7 9.6 99 1027.0 12.1 NE 19.0 0.0 1.4
14:07 9.7 9.6 99 1027.1 13.0 NW 19.0 0.0 1.4
14:08 9.7 9.6 99 1027.0 15.2 NW 19.0 0.0 1.4
14:09 9.7 9.6 99 1027.1 12.1 W 17.4 0.0 1.4
14:11 9.7 9.6 99 1027.0 18.3 NW 18.3 0.0 1.4
14:12 9.7 9.6 99 1027.0 15.2 SW 18.3 0.0 1.4
14:13 9.7 9.6 99 1026.9 13.6 N 18.3 0.0 1.4
14:14 9.7 9.6 99 1027.0 19.7 N 19.7 0.0 1.4
14:15 9.7 9.6 99 1026.9 14.5 W 19.7 0.0 1.4
14:16 9.7 9.6 99 1027.0 15.9 NW 19.7 0.0 1.4
14:17 9.6 9.5 99 1027.0 16.8 NW 19.7 0.0 1.4
14:18 9.7 9.6 99 1027.0 13.6 NW 19.7 0.0 1.4
14:19 9.7 9.6 99 1027.0 9.8 NNW 19.7 0.0 1.4
14:20 9.7 9.6 99 1026.9 22.1 W 22.1 0.0 1.4
14:21 9.6 9.5 99 1026.9 15.2 W 22.1 0.0 1.4
14:22 9.6 9.5 99 1026.9 16.8 NW 22.1 0.0 1.4
14:23 9.6 9.5 99 1026.9 15.9 S 22.1 0.0 1.4
14:25 9.6 9.5 99 1026.9 13.0 NW 22.1 0.0 1.4
14:26 9.7 9.6 99 1027.0 16.8 NW 22.1 0.0 1.4
14:27 9.6 9.5 99 1026.8 14.5 NW 22.1 0.0 1.4
14:28 9.6 9.5 99 1026.8 15.2 W 22.1 0.0 1.4
14:29 9.6 9.5 99 1026.9 13.6 WSW 22.1 0.0 1.4
14:30 9.6 9.5 99 1026.9 13.6 WSW 22.1 0.0 1.4
14:31 9.6 9.5 99 1026.9 15.2 W 16.8 0.0 1.4
14:32 9.6 9.5 99 1026.9 16.8 NW 16.8 0.0 1.4
14:33 9.6 9.5 99 1027.1 19.7 NW 19.7 0.0 1.4
14:34 9.5 9.4 99 1027.1 25.9 NW 25.9 0.0 1.4
14:35 9.5 9.4 99 1027.1 25.9 NW 25.9 0.0 1.4
14:36 9.5 9.4 99 1027.1 15.9 NW 25.9 0.0 1.4
14:37 9.5 9.4 99 1027.0 20.6 SW 25.9 0.0 1.4
14:38 9.5 9.4 99 1027.1 16.8 NE 25.9 0.0 1.4
14:40 9.4 9.3 99 1027.1 22.1 NW 25.9 0.0 1.4
14:41 9.4 9.3 99 1027.2 18.3 SW 25.9 0.0 1.4
14:42 9.4 9.3 99 1027.1 17.4 NW 25.9 0.0 1.4
14:43 9.4 9.3 99 1027.1 16.8 W 25.9 0.0 1.4
14:44 9.4 9.3 99 1027.2 13.6 S 22.1 0.0 1.4
14:45 9.4 9.3 99 1027.2 13.6 S 22.1 0.0 1.4
14:46 9.3 9.2 99 1027.2 14.5 W 22.1 0.0 1.4
14:47 9.3 9.2 99 1027.1 15.9 W 22.1 0.0 1.4
14:48 9.3 9.2 99 1027.0 17.4 W 22.1 0.0 1.4
14:49 9.3 9.2 99 1027.0 15.9 NW 22.1 0.0 1.4
14:50 9.4 9.3 99 1027.1 13.0 NW 22.1 0.0 1.4
14:51 9.4 9.3 99 1027.2 13.6 NW 18.3 0.0 1.4
14:52 9.4 9.3 99 1027.1 15.2 W 18.3 0.0 1.4
14:53 9.3 9.2 99 1027.2 16.8 NW 18.3 0.0 1.4
14:54 9.4 9.3 99 1026.9 12.1 SW 18.3 0.0 1.4
14:56 9.4 9.3 99 1027.1 9.2 NE 18.3 0.0 1.4
14:57 9.3 9.2 99 1027.2 8.3 NW 18.3 0.0 1.4
14:58 9.3 9.2 99 1026.9 15.2 NW 18.3 0.0 1.4
14:59 9.3 9.2 99 1026.8 12.1 NE 18.3 0.0 1.4
15:00 9.3 9.2 99 1027.1 15.9 N 16.8 0.0 1.4
15:01 9.3 9.2 99 1027.1 15.9 N 16.8 0.0 1.4
15:02 9.3 9.2 99 1027.0 19.0 NW 19.0 0.0 1.4
15:03 9.5 9.4 99 1026.9 16.8 NW 19.0 0.0 1.4
15:04 9.3 9.2 99 1026.9 17.4 N 19.0 0.0 1.4
15:05 9.3 9.2 99 1027.0 15.2 NW 19.0 0.0 1.4
15:06 9.3 9.2 99 1026.9 16.8 W 19.0 0.0 1.4
15:07 9.3 9.2 99 1026.9 12.1 NW 19.0 0.0 1.4
15:08 9.3 9.2 99 1026.9 13.0 NW 19.0 0.0 1.4
15:09 9.3 9.2 99 1027.0 12.1 NW 19.0 0.0 1.4
15:10 9.3 9.2 99 1026.9 13.0 NW 19.0 0.0 1.4
15:11 9.3 9.2 99 1027.0 11.4 NW 19.0 0.0 1.4
15:12 9.3 9.2 99 1026.7 16.8 NW 19.0 0.0 1.4
15:13 9.3 9.2 99 1026.7 14.5 W 17.4 0.0 1.4
15:14 9.3 9.2 99 1026.9 13.6 NW 17.4 0.0 1.4
15:16 9.3 9.2 99 1026.5 22.8 NW 25.1 0.0 1.4
15:17 9.3 9.2 99 1027.0 19.0 W 25.1 0.0 1.4
15:18 9.3 9.2 99 1027.0 13.0 NW 25.1 0.0 1.4
15:19 9.3 9.2 99 1026.8 17.4 NW 25.1 0.0 1.4
15:20 9.3 9.2 99 1026.8 11.4 WNW 25.1 0.0 1.4
15:21 9.3 9.2 99 1026.8 11.4 WNW 25.1 0.0 1.4
15:22 9.3 9.2 99 1026.8 13.0 SW 25.1 0.0 1.4
15:23 9.3 9.2 99 1026.9 14.5 NW 25.1 0.0 1.4
15:24 9.3 9.2 99 1027.0 15.2 NW 25.1 0.0 1.4
15:25 9.3 9.2 99 1026.8 18.3 SW 25.1 0.0 1.4
15:26 9.3 9.2 99 1026.8 15.2 NW 22.8 0.0 1.4
15:27 9.3 9.2 99 1026.9 9.8 SW 22.8 0.0 1.4
15:28 9.3 9.2 99 1026.8 15.9 NW 20.6 0.0 1.4
15:29 9.5 9.4 99 1026.8 13.0 SW 20.6 0.0 1.4
15:31 9.3 9.2 99 1026.8 15.2 NW 20.6 0.0 1.4
15:32 9.3 9.2 99 1026.8 19.0 S 20.6 0.0 1.4
15:33 9.2 9.1 99 1026.8 20.6 NW 20.6 0.0 1.4
15:34 9.2 9.1 99 1026.8 16.8 NW 20.6 0.0 1.4
15:35 9.2 9.1 99 1026.8 16.8 NW 20.6 0.0 1.4
15:36 9.2 9.1 99 1027.0 17.4 NW 20.6 0.0 1.4
15:37 9.3 9.2 99 1027.0 13.0 NW 20.6 0.0 1.4
15:38 9.2 9.1 99 1026.8 15.9 W 20.6 0.0 1.4
15:39 9.2 9.1 99 1026.7 15.2 N 20.6 0.0 1.4
15:40 9.3 9.2 99 1026.8 17.4 SW 20.6 0.0 1.4
15:41 9.2 9.1 99 1026.8 10.7 W 20.6 0.0 1.4
15:42 9.3 9.2 99 1026.8 11.4 NW 20.6 0.0 1.4
15:43 9.3 9.2 99 1026.6 19.0 NW 20.6 0.0 1.4
15:44 9.2 9.1 99 1026.8 18.3 WNW 19.0 0.0 1.4
15:46 9.2 9.1 99 1026.9 13.0 SW 19.0 0.0 1.4
15:47 9.2 9.1 99 1026.7 19.0 SW 19.0 0.0 1.4
15:48 9.2 9.1 99 1026.9 19.0 SW 19.0 0.0 1.4
15:49 9.2 9.1 99 1027.0 19.0 NW 19.0 0.0 1.4
15:50 9.2 9.1 99 1027.1 15.9 N 19.0 0.0 1.4
15:51 9.2 9.1 99 1026.9 13.6 NW 19.0 0.0 1.4
15:52 9.2 9.1 99 1026.9 13.0 WSW 19.0 0.0 1.4
15:53 9.2 9.1 99 1026.9 19.0 N 19.0 0.0 1.4
15:54 9.0 8.9 99 1027.0 15.9 NW 19.0 0.0 1.4
15:55 9.2 9.1 99 1027.0 19.0 NW 19.0 0.0 1.4
15:56 9.2 9.1 99 1026.9 19.7 NW 19.7 0.0 1.4
15:57 9.1 9.0 99 1026.9 20.6 NW 20.6 0.0 1.4
15:58 9.1 9.0 99 1026.8 16.8 W 20.6 0.0 1.4
15:59 9.1 9.0 99 1026.7 15.9 NW 20.6 0.0 1.4
16:00 9.1 9.0 99 1026.6 17.4 NW 20.6 0.0 1.4
16:01 9.1 9.0 99 1026.9 17.4 NW 20.6 0.0 1.4
16:02 9.1 9.0 99 1026.8 16.8 NW 20.6 0.0 1.4
16:03 9.1 9.0 99 1026.8 19.7 NW 20.6 0.0 1.4
16:05 9.1 9.0 99 1026.8 21.3 N 21.3 0.0 1.4
16:06 9.1 9.0 99 1026.8 17.4 SW 21.3 0.0 1.4
16:07 9.1 9.0 99 1026.9 20.6 WNW 21.3 0.0 1.4
16:08 9.1 9.0 99 1026.8 17.4 W 21.3 0.0 1.4
16:09 9.1 9.0 99 1026.9 18.3 SW 21.3 0.0 1.4
16:10 9.1 9.0 99 1026.9 18.3 SW 21.3 0.0 1.4
16:11 9.1 9.0 99 1026.7 22.1 W 22.1 0.0 1.4
16:12 9.1 9.0 99 1026.9 20.6 NW 22.1 0.0 1.4
16:13 9.1 9.0 99 1027.0 22.8 NW 22.8 0.0 1.4
16:14 9.1 9.0 99 1026.8 18.3 NW 22.8 0.0 1.4
16:15 9.1 9.0 99 1026.9 25.9 W 25.9 0.0 1.4
16:16 9.1 9.0 99 1027.0 17.4 WSW 25.9 0.0 1.4
16:17 9.1 9.0 99 1026.9 15.9 NW 25.9 0.0 1.4
16:18 9.1 9.0 99 1027.1 13.0 NW 25.9 0.0 1.4
16:19 9.1 9.0 99 1026.9 20.6 WNW 25.9 0.0 1.4
16:20 9.1 9.0 99 1027.0 15.9 NW 25.9 0.0 1.4
16:22 8.9 8.8 99 1027.0 16.8 WNW 25.9 0.0 1.4
16:23 9.1 9.0 99 1027.0 16.8 NW 25.9 0.0 1.4
16:24 9.1 9.0 99 1027.0 17.4 WNW 25.9 0.0 1.4
16:25 9.1 9.0 99 1027.0 19.0 SW 20.6 0.0 1.4
16:26 9.1 9.0 99 1027.0 19.0 SW 20.6 0.0 1.4
16:27 9.1 9.0 99 1026.8 13.0 W 20.6 0.0 1.4
16:28 9.1 9.0 99 1026.8 18.3 W 20.6 0.0 1.4
16:29 9.1 9.0 99 1027.0 17.4 SW 20.6 0.0 1.4
16:30 9.1 9.0 99 1027.0 19.7 W 19.7 0.0 1.4
16:31 9.1 9.0 99 1027.0 18.3 W 19.7 0.0 1.4
16:32 9.1 9.0 99 1026.9 19.0 NW 19.7 0.0 1.4
16:33 9.1 9.0 99 1026.9 18.3 W 19.7 0.0 1.4
16:34 9.1 9.0 99 1026.9 19.7 N 19.7 0.0 1.4
16:35 9.1 9.0 99 1026.8 19.7 NW 19.7 0.0 1.4
16:37 9.1 9.0 99 1027.0 16.8 NW 21.3 0.0 1.4
16:38 9.2 9.1 99 1027.1 22.8 NW 22.8 0.0 1.4
16:39 9.2 9.1 99 1027.0 18.3 NW 22.8 0.0 1.4
16:40 9.1 9.0 99 1027.1 19.0 NW 22.8 0.0 1.4
16:41 9.1 9.0 99 1027.1 19.0 NW 22.8 0.0 1.4
16:42 9.2 9.1 99 1026.9 19.0 NW 22.8 0.0 1.4
16:43 9.1 9.0 99 1027.1 21.3 W 22.8 0.0 1.4
16:44 9.2 9.1 99 1027.1 15.2 NW 22.8 0.0 1.4
16:45 9.3 9.2 99 1027.1 19.0 NW 22.8 0.0 1.4
16:46 9.2 8.9 98 1027.2 16.8 NW 22.8 0.0 1.4
16:47 9.2 8.9 98 1027.1 17.4 W 22.8 0.0 1.4
16:48 9.2 9.1 99 1027.1 15.9 NE 22.8 0.0 1.4
16:49 9.2 8.9 98 1027.0 17.4 NW 22.1 0.0 1.4
16:50 9.2 9.1 99 1027.2 16.8 W 21.3 0.0 1.4
16:51 9.2 9.1 99 1027.1 13.6 NW 21.3 0.0 1.4
16:53 9.2 8.9 98 1027.0 17.4 NW 19.7 0.0 1.4
16:54 9.2 8.9 98 1027.0 19.0 NW 19.7 0.0 1.4
16:55 9.2 9.1 99 1027.0 22.8 WNW 22.8 0.0 1.4
16:56 9.2 8.9 98 1027.2 17.4 NW 22.8 0.0 1.4
16:57 9.2 8.9 98 1027.2 17.4 NW 22.8 0.0 1.4
16:58 9.2 8.9 98 1027.1 14.5 SW 22.8 0.0 1.4
16:59 9.2 8.9 98 1027.3 17.4 W 22.8 0.0 1.4
17:00 9.2 8.9 98 1027.0 17.4 W 22.8 0.0 1.4
17:01 9.2 8.9 98 1027.2 17.4 W 22.8 0.0 1.4
17:02 9.2 8.9 98 1027.2 15.2 W 22.8 0.0 1.4
17:03 9.2 8.9 98 1027.3 15.2 NW 22.8 0.0 1.4
17:04 9.1 8.8 98 1027.3 17.4 SW 22.8 0.0 1.4
17:05 9.1 8.8 98 1027.3 15.2 NW 22.8 0.0 1.4
17:07 9.1 8.8 98 1027.0 18.3 W 18.3 0.0 1.4
17:08 9.1 8.8 98 1027.1 21.3 NW 21.3 0.0 1.4
17:09 9.1 8.8 98 1027.2 14.5 NW 21.3 0.0 1.4
17:10 9.1 9.0 99 1027.2 14.5 W 21.3 0.0 1.4
17:11 9.1 8.8 98 1027.0 15.2 W 21.3 0.0 1.4
17:12 9.1 9.0 99 1027.1 25.9 NW 25.9 0.0 1.4
17:13 9.1 8.8 98 1027.2 20.6 NW 25.9 0.0 1.4
17:15 9.1 9.0 99 1027.1 15.2 SW 25.9 0.0 1.4
17:16 9.1 9.0 99 1027.3 23.5 NW 25.9 0.0 1.4
17:17 9.1 9.0 99 1027.1 17.4 WNW 25.9 0.0 1.4
17:18 9.1 9.0 99 1027.2 23.5 NW 25.9 0.0 1.4
17:19 9.1 9.0 99 1027.2 19.0 NW 25.9 0.0 1.4
17:20 9.1 8.8 98 1027.2 16.8 W 25.9 0.0 1.4
17:21 9.1 9.0 99 1027.3 19.7 NW 25.9 0.0 1.4
17:22 9.1 9.0 99 1027.2 15.2 WNW 25.9 0.0 1.4
17:23 9.1 8.8 98 1027.4 20.6 NW 23.5 0.0 1.4
17:24 9.1 8.8 98 1027.2 15.9 W 23.5 0.0 1.4
17:25 9.1 9.0 99 1027.1 19.0 NW 23.5 0.0 1.4
17:26 9.1 9.0 99 1027.4 15.9 NW 23.5 0.0 1.4
17:27 9.1 9.0 99 1027.1 19.7 NW 23.5 0.0 1.4
17:28 9.1 9.0 99 1027.4 13.0 NW 23.5 0.0 1.4
17:29 9.1 9.0 99 1027.4 19.0 NW 20.6 0.0 1.4
17:31 9.1 8.8 98 1027.6 19.7 WSW 20.6 0.0 1.4
17:32 9.1 9.0 99 1027.4 15.2 NW 20.6 0.0 1.4
17:33 9.1 9.0 99 1027.6 15.2 NW 20.6 0.0 1.4
17:34 9.1 9.0 99 1027.5 9.8 SW 20.6 0.0 1.4
17:35 9.1 9.0 99 1027.5 9.8 SW 20.6 0.0 1.4
17:36 9.1 9.0 99 1027.7 17.4 NW 20.6 0.0 1.4
17:37 9.1 9.0 99 1027.5 14.5 NW 20.6 0.0 1.4
17:38 9.1 9.0 99 1027.6 13.6 NW 20.6 0.0 1.4
17:39 9.1 8.8 98 1027.7 13.6 NW 20.6 0.0 1.4
17:40 9.1 8.8 98 1027.5 13.6 NW 20.6 0.0 1.4
17:41 9.1 8.8 98 1027.6 13.0 NW 19.7 0.0 1.4
17:42 9.1 9.0 99 1027.6 12.1 NW 17.4 0.0 1.4
17:43 9.1 9.0 99 1027.6 15.9 SW 17.4 0.0 1.4
17:44 9.1 8.8 98 1027.5 18.3 W 18.3 0.0 1.4
17:45 9.1 9.0 99 1027.6 13.6 W 18.3 0.0 1.4
17:46 9.1 9.0 99 1027.6 14.5 W 18.3 0.0 1.4
17:47 9.1 8.8 98 1027.5 15.2 NW 18.3 0.0 1.4
17:48 9.1 9.0 99 1027.7 16.8 NW 18.3 0.0 1.4
17:50 9.1 9.0 99 1027.5 17.4 S 18.3 0.0 1.4
17:51 9.1 9.0 99 1027.6 19.0 WNW 19.0 0.0 1.4
17:52 9.1 9.0 99 1027.6 17.4 W 19.0 0.0 1.4
17:53 9.1 9.0 99 1027.4 15.2 NW 19.0 0.0 1.4
17:54 9.1 9.0 99 1027.5 14.5 NW 19.0 0.0 1.4
17:55 9.1 9.0 99 1027.5 14.5 NW 19.0 0.0 1.4
17:56 9.1 9.0 99 1027.5 16.8 W 19.0 0.0 1.4
17:57 9.1 9.0 99 1027.5 15.2 NW 19.0 0.0 1.4
17:58 9.1 9.0 99 1027.5 15.9 NW 19.0 0.0 1.4
17:59 9.1 9.0 99 1027.4 16.8 W 19.0 0.0 1.4
18:00 9.1 9.0 99 1027.3 18.3 NW 19.0 0.0 1.4
18:01 9.1 9.0 99 1027.5 18.3 NW 19.0 0.0 1.4
18:02 9.1 9.0 99 1027.5 16.8 NW 18.3 0.0 1.4
18:03 9.1 9.0 99 1027.5 15.9 WSW 18.3 0.0 1.4
18:04 9.2 9.1 99 1027.6 16.8 N 18.3 0.0 1.4
18:05 9.1 9.0 99 1027.4 15.9 SW 18.3 0.0 1.4
18:06 9.1 9.0 99 1027.6 13.6 NW 18.3 0.0 1.4
18:07 9.2 9.1 99 1027.5 17.4 N 18.3 0.0 1.4
18:08 9.2 9.1 99 1027.6 18.3 NW 19.7 0.0 1.4
18:09 9.2 9.1 99 1027.6 13.6 NW 19.7 0.0 1.4
18:10 9.2 9.1 99 1027.4 14.5 NW 19.7 0.0 1.4
18:11 9.2 9.1 99 1027.5 17.4 NW 19.7 0.0 1.4
18:12 9.2 9.1 99 1027.5 19.7 SW 19.7 0.0 1.4
18:14 9.2 9.1 99 1027.5 15.9 NW 19.7 0.0 1.4
18:15 9.2 9.1 99 1027.6 13.6 NW 19.7 0.0 1.4
18:16 9.2 9.1 99 1027.3 15.2 NW 19.7 0.0 1.4
18:17 9.2 9.1 99 1027.4 15.2 S 19.7 0.0 1.4
18:18 9.2 9.1 99 1027.4 15.2 NW 19.7 0.0 1.4
18:19 9.2 9.1 99 1027.4 19.7 WNW 19.7 0.0 1.4
18:20 9.2 9.1 99 1027.3 16.8 W 19.7 0.0 1.4
18:21 9.2 9.1 99 1027.3 15.2 NW 19.7 0.0 1.4
18:22 9.2 9.1 99 1027.4 13.6 N 19.7 0.0 1.4
18:23 9.2 9.1 99 1027.5 13.0 W 19.7 0.0 1.4
18:24 9.2 9.1 99 1027.5 18.3 W 19.7 0.0 1.4
18:25 9.2 9.1 99 1027.4 14.5 W 19.7 0.0 1.4
18:26 9.2 9.1 99 1027.5 16.8 NW 19.7 0.0 1.4
18:27 9.2 9.1 99 1027.4 15.2 WNW 19.7 0.0 1.4
18:28 9.2 9.1 99 1027.4 13.0 NW 19.7 0.0 1.4
18:29 9.2 9.1 99 1027.4 16.8 W 19.7 0.0 1.4
18:30 9.2 9.1 99 1027.4 15.2 NW 18.3 0.0 1.4
18:31 9.2 9.1 99 1027.4 14.5 SW 18.3 0.0 1.4
18:32 9.2 9.1 99 1027.3 21.3 N 21.3 0.0 1.4
18:33 9.2 9.1 99 1027.4 16.8 NW 21.3 0.0 1.4
18:34 9.2 9.1 99 1027.3 14.5 NW 21.3 0.0 1.4
18:36 9.2 9.1 99 1027.2 17.4 NW 21.3 0.0 1.4
18:37 9.3 9.2 99 1027.2 19.0 NW 21.3 0.0 1.4
18:38 9.2 9.1 99 1027.3 14.5 W 21.3 0.0 1.4
18:39 9.3 9.2 99 1027.3 15.9 NW 21.3 0.0 1.4
18:40 9.3 9.2 99 1027.4 16.8 S 21.3 0.0 1.4
18:41 9.3 9.2 99 1027.4 16.8 S 21.3 0.0 1.4
18:42 9.3 9.2 99 1027.2 18.3 NW 21.3 0.0 1.4
18:43 9.3 9.2 99 1027.1 20.6 W 20.6 0.0 1.4
18:44 9.3 9.2 99 1027.2 16.8 NW 20.6 0.0 1.4
18:45 9.3 9.2 99 1027.1 20.6 N 20.6 0.0 1.4
18:46 9.3 9.2 99 1027.1 16.8 NW 20.6 0.0 1.4
18:47 9.3 9.2 99 1027.0 15.2 WNW 20.6 0.0 1.4
18:48 9.3 9.2 99 1027.0 14.5 W 20.6 0.0 1.4
18:49 9.3 9.2 99 1027.0 16.8 W 20.6 0.0 1.4
18:50 9.3 9.2 99 1027.2 19.0 NW 20.6 0.0 1.4
18:51 9.3 9.2 99 1027.0 15.2 NW 20.6 0.0 1.4
18:52 9.3 9.2 99 1027.0 21.3 NW 21.3 0.0 1.4
18:53 9.3 9.2 99 1027.2 14.5 N 21.3 0.0 1.4
18:54 9.3 9.2 99 1027.0 18.3 NW 21.3 0.0 1.4
18:55 9.2 9.1 99 1027.0 18.3 NW 22.1 0.0 1.4
18:57 9.3 9.2 99 1027.2 13.6 NW 22.1 0.0 1.4
18:58 9.3 9.2 99 1027.1 13.6 NW 22.1 0.0 1.4
18:59 9.3 9.2 99 1027.0 19.7 NW 22.1 0.0 1.4
19:00 9.3 9.2 99 1027.2 19.7 NW 22.1 0.0 1.4
19:01 9.3 9.2 99 1027.3 17.4 ENE 22.1 0.0 1.4
19:02 9.3 9.2 99 1027.1 17.4 ENE 22.1 0.0 1.4
19:03 9.3 9.2 99 1027.1 19.7 NW 22.1 0.0 1.4
19:04 9.3 9.2 99 1027.1 18.3 NW 22.1 0.0 1.4
19:05 9.2 9.1 99 1027.0 18.3 W 22.1 0.0 1.4
19:06 9.3 9.2 99 1027.2 16.8 W 22.1 0.0 1.4
19:07 9.3 9.2 99 1027.1 16.8 NW 19.7 0.0 1.4
19:08 9.3 9.2 99 1027.4 15.9 W 19.7 0.0 1.4
19:09 9.3 9.2 99 1027.4 15.2 NW 19.7 0.0 1.4
19:10 9.2 9.1 99 1027.3 13.0 SW 19.7 0.0 1.4
19:11 9.3 9.2 99 1027.3 20.6 SW 20.6 0.0 1.4
19:12 9.3 9.2 99 1027.3 15.2 NW 20.6 0.0 1.4
19:13 9.3 9.2 99 1027.3 15.2 NW 20.6 0.0 1.4
19:14 9.3 9.2 99 1027.2 17.4 NW 20.6 0.0 1.4
19:15 9.3 9.2 99 1027.1 18.3 NW 20.6 0.0 1.4
19:16 9.3 9.2 99 1027.2 16.8 NW 20.6 0.0 1.4
19:17 9.3 9.2 99 1027.1 16.8 WSW 20.6 0.0 1.4
19:18 9.3 9.2 99 1027.2 18.3 NW 20.6 0.0 1.4
19:19 9.3 9.2 99 1027.3 16.8 NW 20.6 0.0 1.4
19:20 9.3 9.2 99 1027.3 19.7 NW 20.6 0.0 1.4
19:21 9.3 9.2 99 1027.3 15.9 NW 20.6 0.0 1.4
19:22 9.3 9.2 99 1027.1 19.0 NW 20.6 0.0 1.4
19:23 9.3 9.2 99 1027.3 13.6 NW 20.6 0.0 1.4
19:24 9.3 9.2 99 1027.2 15.2 NW 20.6 0.0 1.4
19:25 9.3 9.2 99 1027.3 16.8 NW 20.6 0.0 1.4
19:26 9.3 9.2 99 1027.4 15.9 NW 20.6 0.0 1.4
19:27 9.3 9.2 99 1027.3 22.1 WNW 22.1 0.0 1.4
19:29 9.3 9.2 99 1027.5 15.2 NW 22.1 0.0 1.4
19:30 9.3 9.2 99 1027.5 15.2 S 22.1 0.0 1.4
19:31 9.3 9.2 99 1027.5 13.6 NW 22.1 0.0 1.4
19:32 9.3 9.2 99 1027.4 17.4 NW 22.1 0.0 1.4
19:33 9.3 9.2 99 1027.6 14.5 SW 22.1 0.0 1.4
19:34 9.3 9.2 99 1027.5 16.8 NW 22.1 0.0 1.4
19:35 9.3 9.2 99 1027.6 19.7 SW 22.1 0.0 1.4
19:36 9.3 9.0 98 1027.5 15.9 NW 22.1 0.0 1.4
19:37 9.3 9.2 99 1027.3 17.4 WNW 22.1 0.0 1.4
19:38 9.3 9.0 98 1027.5 12.1 W 22.1 0.0 1.4
19:39 9.3 9.0 98 1027.6 18.3 NW 22.1 0.0 1.4
19:40 9.3 9.2 99 1027.4 17.4 N 22.1 0.0 1.4
19:41 9.2 8.9 98 1027.6 19.0 W 22.1 0.0 1.4
19:42 9.2 8.9 98 1027.4 15.2 NW 20.6 0.0 1.4
19:43 9.2 8.9 98 1027.5 15.2 N 20.6 0.0 1.4
19:44 9.2 8.9 98 1027.6 15.2 W 20.6 0.0 1.4
19:45 9.2 8.9 98 1027.6 10.7 W 20.6 0.0 1.4
19:46 9.2 8.9 98 1027.6 13.6 SW 20.6 0.0 1.4
19:47 9.2 8.9 98 1027.6 13.6 WNW 20.6 0.0 1.4
19:48 9.2 8.9 98 1027.5 15.9 W 19.0 0.0 1.4
19:49 9.2 8.9 98 1027.6 13.0 NW 19.0 0.0 1.4
19:50 9.2 8.9 98 1027.6 14.5 NW 19.0 0.0 1.4
19:52 9.2 8.9 98 1027.5 13.6 NW 19.0 0.0 1.4
19:53 9.2 8.9 98 1027.5 13.0 NW 19.0 0.0 1.4
19:54 9.2 8.9 98 1027.5 15.2 NW 19.0 0.0 1.4
19:55 9.2 8.9 98 1027.3 13.0 NW 19.0 0.0 1.4
19:56 9.1 8.8 98 1027.4 15.9 NW 19.0 0.0 1.4
19:57 9.1 8.8 98 1027.4 15.9 NW 19.0 0.0 1.4
19:58 9.2 8.9 98 1027.4 15.2 NW 19.0 0.0 1.4
19:59 9.2 8.9 98 1027.5 15.2 NW 19.0 0.0 1.4
20:00 9.2 8.9 98 1027.4 15.2 NE 19.0 0.0 1.4
20:01 9.2 8.9 98 1027.7 15.2 NE 19.0 0.0 1.4
20:02 9.2 8.9 98 1027.5 12.1 W 15.9 0.0 1.4
20:03 9.2 8.9 98 1027.4 17.4 NW 17.4 0.0 1.4
20:04 9.2 8.9 98 1027.7 15.2 NW 17.4 0.0 1.4
20:05 9.2 8.9 98 1027.6 13.6 NW 17.4 0.0 1.4
20:07 9.2 8.9 98 1027.7 10.7 W 17.4 0.0 1.4
20:08 9.2 8.9 98 1027.6 13.0 W 17.4 0.0 1.4
20:09 9.2 8.9 98 1027.6 15.2 NW 17.4 0.0 1.4
20:10 9.2 8.9 98 1027.5 15.2 NW 17.4 0.0 1.4
20:11 9.2 8.9 98 1027.3 13.0 WNW 17.4 0.0 1.4
20:12 9.2 8.9 98 1027.5 14.5 W 17.4 0.0 1.4
20:15 9.2 8.9 98 1027.2 13.6 NW 15.2 0.0 1.4
20:16 9.2 8.9 98 1027.3 13.6 WNW 15.2 0.0 1.4
20:17 9.2 8.9 98 1027.3 15.2 NW 15.2 0.0 1.4
20:18 9.2 8.9 98 1027.5 15.2 WSW 15.2 0.0 1.4
20:19 9.2 8.9 98 1027.4 19.0 NW 19.0 0.0 1.4
20:20 9.2 8.9 98 1027.3 14.5 NW 19.0 0.0 1.4
20:21 9.2 8.9 98 1027.3 15.2 NW 19.0 0.0 1.4
20:22 9.2 8.9 98 1027.4 13.6 W 19.0 0.0 1.4
20:23 9.2 8.9 98 1027.3 15.9 NW 19.0 0.0 1.4
20:24 9.2 8.9 98 1027.2 15.9 W 19.0 0.0 1.4
20:25 9.3 9.0 98 1027.3 14.5 W 19.0 0.0 1.4
20:26 9.3 9.0 98 1027.3 13.6 N 19.0 0.0 1.4
20:28 9.3 9.0 98 1027.4 9.8 WNW 19.0 0.0 1.4
20:29 9.2 9.1 99 1027.4 12.1 NW 16.8 0.0 1.4
20:30 9.2 9.1 99 1027.3 12.1 WSW 16.8 0.0 1.4
20:31 9.3 9.0 98 1027.3 15.2 W 16.8 0.0 1.4
20:32 9.2 8.9 98 1027.3 13.0 NW 16.8 0.0 1.4
20:33 9.3 9.2 99 1027.4 15.2 SW 16.8 0.0 1.4
20:34 9.3 9.0 98 1027.3 13.0 N 15.9 0.0 1.4
20:35 9.3 9.2 99 1027.3 13.0 W 15.9 0.0 1.4
20:36 9.3 9.0 98 1027.2 17.4 NW 17.4 0.0 1.4
20:37 9.3 9.2 99 1027.1 13.6 N 17.4 0.0 1.4
20:38 9.3 9.2 99 1027.2 17.4 NW 17.4 0.0 1.4
20:39 9.2 9.1 99 1027.3 14.5 NW 17.4 0.0 1.4
20:40 9.3 9.2 99 1027.1 19.0 W 19.0 0.0 1.4
20:41 9.3 9.2 99 1027.2 16.8 SW 19.0 0.0 1.4
20:42 9.3 9.2 99 1027.3 15.2 SW 19.0 0.0 1.4
20:43 9.3 9.2 99 1027.3 10.7 NW 19.0 0.0 1.4
20:44 9.3 9.2 99 1027.3 13.6 NW 19.0 0.0 1.4
20:45 9.2 9.1 99 1027.3 16.8 N 19.0 0.0 1.4
20:46 9.2 9.1 99 1027.2 12.1 W 19.0 0.0 1.4
20:48 9.2 9.1 99 1027.2 11.4 NW 19.0 0.0 1.4
20:49 9.2 9.1 99 1027.1 13.0 NW 19.0 0.0 1.4
20:50 9.2 9.1 99 1027.1 13.6 NW 16.8 0.0 1.4
20:51 9.2 9.1 99 1027.2 16.8 W 16.8 0.0 1.4
20:52 9.2 9.1 99 1027.2 16.8 W 16.8 0.0 1.4
20:53 9.2 9.1 99 1027.2 15.9 NW 16.8 0.0 1.4
20:54 9.2 9.1 99 1026.9 14.5 WNW 16.8 0.0 1.4
20:55 9.2 9.1 99 1027.1 18.3 NW 18.3 0.0 1.4
20:56 9.2 9.1 99 1027.3 13.6 NW 18.3 0.0 1.4
20:57 9.2 9.1 99 1027.2 14.5 NW 18.3 0.0 1.4
20:58 9.2 9.1 99 1027.1 21.3 NW 21.3 0.0 1.4
20:59 9.3 9.2 99 1027.2 20.6 NW 21.3 0.0 1.4
21:00 9.3 9.2 99 1027.2 15.2 NW 21.3 0.0 1.4
21:01 9.3 9.2 99 1027.1 21.3 NE 21.3 0.0 1.4
21:02 9.3 9.2 99 1027.2 12.1 W 21.3 0.0 1.4
21:03 9.3 9.2 99 1027.3 12.1 N 21.3 0.0 1.4
21:04 9.3 9.2 99 1027.3 13.0 NW 21.3 0.0 1.4
21:05 9.3 9.2 99 1027.3 13.6 NW 21.3 0.0 1.4
21:06 9.3 9.2 99 1027.3 14.5 NW 21.3 0.0 1.4
21:07 9.3 9.2 99 1027.4 11.4 E 21.3 0.0 1.4
21:09 9.3 9.2 99 1027.3 13.6 W 21.3 0.0 1.4
21:10 9.3 9.2 99 1027.3 9.8 NW 21.3 0.0 1.4
21:11 9.3 9.2 99 1027.2 13.6 N 21.3 0.0 1.4
21:12 9.3 9.2 99 1027.3 13.6 WSW 14.5 0.0 1.4
21:13 9.3 9.2 99 1027.3 13.0 NW 14.5 0.0 1.4
21:14 9.3 9.2 99 1027.3 11.4 WNW 14.5 0.0 1.4
21:15 9.3 9.2 99 1027.3 10.7 W 14.5 0.0 1.4
21:16 9.3 9.2 99 1027.3 9.2 NW 13.6 0.0 1.4
21:17 9.3 9.2 99 1027.3 9.8 N 13.6 0.0 1.4
21:18 9.3 9.2 99 1027.3 13.0 N 13.6 0.0 1.4
21:19 9.3 9.2 99 1027.2 14.5 W 15.9 0.0 1.4
21:20 9.3 9.2 99 1027.2 9.8 NNW 15.9 0.0 1.4
21:21 9.3 9.2 99 1027.1 12.1 N 15.9 0.0 1.4
21:22 9.3 9.2 99 1027.3 15.2 NW 15.9 0.0 1.4
21:24 9.3 9.2 99 1027.0 12.1 NW 15.9 0.0 1.4
21:25 9.3 9.2 99 1027.3 11.4 W 15.9 0.0 1.4
21:26 9.3 9.2 99 1027.1 8.3 NW 15.9 0.0 1.4
21:27 9.3 9.2 99 1027.1 10.7 W 15.9 0.0 1.4
21:28 9.3 9.2 99 1027.1 11.4 NW 15.9 0.0 1.4
21:29 9.3 9.2 99 1027.1 9.8 SW 15.9 0.0 1.4
21:30 9.3 9.2 99 1026.9 10.7 SW 15.2 0.0 1.4
21:31 9.3 9.2 99 1027.2 12.1 W 15.2 0.0 1.4
21:32 9.3 9.2 99 1027.1 13.0 NW 15.2 0.0 1.4
21:33 9.3 9.2 99 1027.0 11.4 N 15.2 0.0 1.4
21:34 9.3 9.2 99 1026.8 15.9 W 15.9 0.0 1.4
21:35 9.3 9.2 99 1027.0 13.0 NW 15.9 0.0 1.4
21:36 9.3 9.2 99 1026.8 15.2 NW 15.9 0.0 1.4
21:37 9.3 9.2 99 1026.9 11.4 NW 16.8 0.0 1.4
21:38 9.3 9.2 99 1026.9 13.0 W 16.8 0.0 1.4
21:39 9.3 9.2 99 1026.9 14.5 W 16.8 0.0 1.4
21:40 9.3 9.2 99 1026.9 18.3 WSW 18.3 0.0 1.4
21:41 9.3 9.2 99 1027.0 15.2 W 18.3 0.0 1.4
21:42 9.4 9.3 99 1026.8 11.4 W 18.3 0.0 1.4
21:43 9.4 9.3 99 1026.9 12.1 N 18.3 0.0 1.4
21:44 9.3 9.2 99 1027.0 15.2 NW 18.3 0.0 1.4
21:45 9.4 9.3 99 1026.9 10.7 WSW 18.3 0.0 1.4
21:46 9.4 9.3 99 1026.8 13.6 W 18.3 0.0 1.4
21:47 9.4 9.3 99 1026.7 17.4 NE 18.3 0.0 1.4
21:49 9.4 9.3 99 1026.8 10.7 W 18.3 0.0 1.4
21:50 9.4 9.3 99 1026.8 15.9 W 17.4 0.0 1.4
21:51 9.4 9.3 99 1026.7 13.6 W 17.4 0.0 1.4
21:52 9.4 9.3 99 1026.7 13.6 W 17.4 0.0 1.4
21:53 9.4 9.3 99 1026.8 14.5 NW 17.4 0.0 1.4
21:54 9.4 9.3 99 1026.7 16.8 NW 17.4 0.0 1.4
21:55 9.4 9.3 99 1026.7 15.2 NW 17.4 0.0 1.4
21:56 9.4 9.3 99 1026.8 13.6 W 17.4 0.0 1.4
21:57 9.4 9.3 99 1026.8 13.6 NW 17.4 0.0 1.4
21:58 9.4 9.3 99 1026.8 14.5 W 17.4 0.0 1.4
21:59 9.4 9.3 99 1026.9 18.3 WSW 18.3 0.0 1.4
22:00 9.4 9.3 99 1026.9 14.5 NE 18.3 0.0 1.4
22:01 9.4 9.3 99 1026.8 15.9 SW 18.3 0.0 1.4
22:02 9.4 9.3 99 1026.8 13.6 N 18.3 0.0 1.4
22:03 9.4 9.3 99 1026.8 15.9 W 18.3 0.0 1.4
22:04 9.4 9.3 99 1026.8 13.0 S 18.3 0.0 1.4
22:05 9.5 9.4 99 1026.9 15.9 NW 18.3 0.0 1.4
22:06 9.5 9.4 99 1026.8 14.5 NW 18.3 0.0 1.4
22:07 9.5 9.4 99 1026.7 14.5 NW 18.3 0.0 1.4
22:08 9.4 9.3 99 1026.9 15.2 W 18.3 0.0 1.4
22:09 9.5 9.4 99 1026.7 19.0 NW 19.0 0.0 1.4
22:10 9.4 9.3 99 1026.8 17.4 W 19.0 0.0 1.4
22:12 9.5 9.4 99 1026.9 16.8 SW 19.0 0.0 1.4
22:13 9.5 9.4 99 1026.9 12.1 NW 19.0 0.0 1.4
22:14 9.5 9.4 99 1027.0 13.6 NW 19.0 0.0 1.4
22:15 9.5 9.4 99 1027.0 14.5 NW 19.0 0.0 1.4
22:16 9.5 9.4 99 1026.9 15.9 W 19.0 0.0 1.4
22:17 9.5 9.4 99 1027.1 13.0 NW 19.0 0.0 1.4
22:18 9.5 9.4 99 1027.1 10.7 E 19.0 0.0 1.4
22:19 9.5 9.4 99 1027.0 17.4 E 19.0 0.0 1.4
22:20 9.5 9.4 99 1027.1 11.4 E 17.4 0.0 1.4
22:21 9.5 9.4 99 1026.9 19.0 S 19.0 0.0 1.4
22:22 9.5 9.4 99 1026.9 15.9 NW 19.0 0.0 1.4
22:23 9.5 9.4 99 1027.0 13.6 SW 19.0 0.0 1.4
22:24 9.5 9.4 99 1027.0 16.8 SW 19.0 0.0 1.4
22:25 9.5 9.4 99 1027.0 17.4 N 19.0 0.0 1.4
22:26 9.5 9.4 99 1026.8 15.9 N 19.0 0.0 1.4
22:27 9.5 9.4 99 1026.8 16.8 NW 19.0 0.0 1.4
22:28 9.5 9.4 99 1027.0 15.9 NW 19.0 0.0 1.4
22:29 9.5 9.4 99 1026.9 16.8 NW 19.0 0.0 1.4
22:30 9.5 9.4 99 1026.7 15.9 SW 19.0 0.0 1.4
22:31 9.5 9.4 99 1026.9 13.6 WSW 17.4 0.0 1.4
22:32 9.5 9.4 99 1026.9 15.2 SW 17.4 0.0 1.4
22:33 9.5 9.4 99 1026.8 12.1 NW 17.4 0.0 1.4
22:34 9.5 9.4 99 1026.7 14.5 W 17.4 0.0 1.4
22:36 9.5 9.4 99 1026.6 14.5 NW 16.8 0.0 1.4
22:37 9.5 9.4 99 1026.8 9.8 SW 16.8 0.0 1.4
22:38 9.5 9.4 99 1026.7 13.0 SW 16.8 0.0 1.4
22:39 9.5 9.4 99 1026.8 19.0 W 19.0 0.0 1.4
22:40 9.5 9.4 99 1026.8 10.7 SW 19.0 0.0 1.4
22:41 9.5 9.4 99 1026.7 18.3 W 19.0 0.0 1.4
22:42 9.5 9.4 99 1026.8 18.3 NW 19.0 0.0 1.4
22:43 9.5 9.4 99 1026.9 13.0 S 19.0 0.0 1.4
22:44 9.5 9.4 99 1026.7 13.6 NW 19.0 0.0 1.4
22:45 9.5 9.4 99 1026.8 14.5 NW 19.0 0.0 1.4
22:46 9.5 9.4 99 1026.6 15.2 WSW 19.0 0.0 1.4
22:47 9.5 9.4 99 1026.7 15.9 W 19.0 0.0 1.4
22:48 9.5 9.4 99 1026.6 18.3 W 19.0 0.0 1.4
22:49 9.5 9.4 99 1026.7 16.8 W 19.0 0.0 1.4
22:50 9.5 9.4 99 1026.7 15.9 NW 18.3 0.0 1.4
22:51 9.5 9.4 99 1026.5 13.6 NW 18.3 0.0 1.4
22:52 9.5 9.4 99 1026.6 15.9 SW 18.3 0.0 1.4
22:53 9.5 9.4 99 1026.6 13.6 NW 18.3 0.0 1.4
22:54 9.5 9.4 99 1026.6 13.6 NW 18.3 0.0 1.4
22:55 9.5 9.4 99 1026.7 16.8 SW 18.3 0.0 1.4
22:56 9.5 9.4 99 1026.6 15.2 W 18.3 0.0 1.4
22:57 9.5 9.4 99 1026.7 19.0 NW 19.0 0.0 1.4
22:59 9.5 9.4 99 1026.6 16.8 W 19.7 0.0 1.4
23:00 9.5 9.4 99 1026.8 16.8 W 19.7 0.0 1.4
23:01 9.4 9.3 99 1026.5 19.0 W 19.7 0.0 1.4
23:02 9.5 9.4 99 1026.7 13.0 NW 19.7 0.0 1.4
23:03 9.5 9.4 99 1026.7 13.0 NW 19.7 0.0 1.4
23:04 9.5 9.4 99 1026.6 17.4 NW 19.7 0.0 1.4
23:05 9.5 9.4 99 1026.8 17.4 N 19.7 0.0 1.4
23:06 9.5 9.4 99 1026.7 17.4 NW 19.7 0.0 1.4
23:07 9.5 9.4 99 1026.7 14.5 NW 19.7 0.0 1.4
23:08 9.5 9.4 99 1026.4 14.5 NW 19.7 0.0 1.4
23:09 9.5 9.4 99 1026.5 17.4 NW 19.0 0.0 1.4
23:10 9.5 9.4 99 1026.6 16.8 SW 19.0 0.0 1.4
23:11 9.5 9.4 99 1026.7 15.9 NW 19.0 0.0 1.4
23:12 9.5 9.4 99 1026.5 12.1 W 17.4 0.0 1.4
23:13 9.5 9.4 99 1026.4 12.1 W 17.4 0.0 1.4
23:14 9.4 9.3 99 1026.8 19.0 NW 19.7 0.0 1.4
23:15 9.5 9.4 99 1026.8 9.8 NW 19.7 0.0 1.4
23:16 9.5 9.4 99 1026.7 19.0 NW 19.7 0.0 1.4
23:17 9.5 9.4 99 1026.8 16.8 NW 19.7 0.0 1.4
23:18 9.5 9.4 99 1026.7 16.8 WNW 19.7 0.0 1.4
23:19 9.5 9.4 99 1026.7 18.3 W 19.7 0.0 1.4
23:20 9.5 9.4 99 1026.6 17.4 W 19.7 0.0 1.4
23:21 9.5 9.4 99 1026.6 15.2 NW 19.7 0.0 1.4
23:22 9.5 9.4 99 1026.7 15.9 WNW 19.7 0.0 1.4
23:23 9.5 9.4 99 1026.6 18.3 NW 19.7 0.0 1.4
23:24 9.5 9.4 99 1026.7 14.5 W 19.0 0.0 1.4
23:25 9.5 9.4 99 1026.7 19.7 SW 19.7 0.0 1.4
23:26 9.5 9.4 99 1026.7 15.9 NW 19.7 0.0 1.4
23:27 9.5 9.4 99 1026.8 15.9 WSW 19.7 0.0 1.4
23:28 9.5 9.4 99 1026.8 14.5 N 19.7 0.0 1.4
23:29 9.6 9.5 99 1026.9 15.9 N 19.7 0.0 1.4
23:30 9.5 9.4 99 1026.9 14.5 NW 19.7 0.0 1.4
23:31 9.5 9.4 99 1026.6 17.4 NW 19.7 0.0 1.4
23:32 9.5 9.4 99 1026.6 11.4 SW 19.7 0.0 1.4
23:33 9.4 9.3 99 1026.7 13.6 SW 19.7 0.0 1.4
23:34 9.5 9.4 99 1026.8 15.2 SW 19.7 0.0 1.4
23:36 9.5 9.4 99 1026.9 11.4 NE 19.0 0.0 1.4
23:37 9.5 9.4 99 1026.9 11.4 NE 19.0 0.0 1.4
23:38 9.4 9.3 99 1026.8 16.8 NW 19.0 0.0 1.4
23:39 9.4 9.3 99 1026.9 12.1 SW 19.0 0.0 1.4
23:40 9.4 9.3 99 1026.8 9.2 NW 19.0 0.0 1.4
23:41 9.5 9.4 99 1026.8 17.4 NW 19.0 0.0 1.4
23:42 9.4 9.3 99 1026.6 17.4 WNW 19.0 0.0 1.4
23:43 9.4 9.3 99 1026.8 12.1 SW 19.0 0.0 1.4
23:44 9.4 9.3 99 1026.7 16.8 SW 19.0 0.0 1.4
23:45 9.4 9.3 99 1026.8 15.9 W 19.0 0.0 1.4
23:46 9.4 9.3 99 1026.8 14.5 NW 17.4 0.0 1.4
23:47 9.4 9.3 99 1026.8 16.8 W 17.4 0.0 1.4
23:48 9.4 9.3 99 1026.9 18.3 WNW 18.3 0.0 1.4
23:49 9.4 9.3 99 1026.7 13.0 NW 19.0 0.0 1.4
23:50 9.4 9.3 99 1026.7 11.4 WNW 19.0 0.0 1.4
23:51 9.3 9.2 99 1026.6 10.7 W 19.0 0.0 1.4
23:52 9.3 9.2 99 1026.6 13.0 W 19.0 0.0 1.4
23:53 9.3 9.2 99 1026.6 13.0 NW 19.0 0.0 1.4
23:54 9.3 9.2 99 1026.5 11.4 W 19.0 0.0 1.4
23:55 9.3 9.2 99 1026.7 9.2 NW 19.0 0.0 1.4
23:56 9.3 9.2 99 1026.6 12.1 NW 19.0 0.0 1.4
23:57 9.2 9.1 99 1026.7 9.8 WSW 19.0 0.0 1.4
23:59 9.2 9.1 99 1026.6 6.9 SW 15.9 0.0 1.4

UK - WEATHER STATION TOPSITES - UK World Weather Websites

This is a private weather station, never base important decisions or events on data from this weather station. Although every effort has been made to make the data as accurate as possible it does not meet MetOffice standards. It is proved as a guide of local weather conditions. We accept no liability for any loss which may arise from use of the data.

Copyright © Carnkie Weather 2009 - 2019.